KLM873 EHAM-VOHS
Flight info
| Callsign | KLM873 |
|---|---|
| Flight time | 8h 54m |
| Altitude | 33000 |
| Route | EDUPO Z739 MISGO DCT TIVUN DCT ESAMA DCT OSBIT DCT BOREP DCT ENITA DCT ETVIS DCT DITIS DCT TOVKA DCT ALAMU DCT BUDOP DCT IRLOX DCT OPT DCT LUGEB DCT UDROS DCT CRM/N0475F350 UM11 REBLO DCT MATAL M11 LUSAL N199 RASAM L88 NIJAT N644 RODAR A909 BIBIM B450 MAMED B449 RANAH L750 ZB G202 RK P628 LATOS/N0485F370 P628 IBANI Q23 PEDMA W27 BDR |
| Aircraft | B77W/H-SDE1E2E3FGHIJ2J3J4J5M1RWXY/LB1D1 |
Departure
| Time | 2026-04-29 20:05 |
|---|---|
| Airport | Amsterdam Airport Schiphol (EHAM) |
Arrival
| Time | 2026-04-30 05:00 |
|---|---|
| Airport | Rajiv Gandhi International Airport (VOHS) |
| Time | Latitude | Longitude | Altitude | Speed | Heading |
|---|---|---|---|---|---|
| 2026-04-29 19:51 | 52.31353 | 4.75570 | 4 ft | 0 kts | 86° |
| 2026-04-29 19:59 | 52.31353 | 4.75569 | 4 ft | 2 kts | 86° |
| 2026-04-29 19:59 | 52.31351 | 4.75542 | 4 ft | 2 kts | 85° |
| 2026-04-29 19:59 | 52.31350 | 4.75515 | 4 ft | 2 kts | 83° |
| 2026-04-29 20:00 | 52.31347 | 4.75488 | 6 ft | 2 kts | 78° |
| 2026-04-29 20:00 | 52.31343 | 4.75463 | 7 ft | 2 kts | 57° |
| 2026-04-29 20:00 | 52.31331 | 4.75450 | 7 ft | 1 kts | 357° |
| 2026-04-29 20:00 | 52.31330 | 4.75450 | 7 ft | 0 kts | 358° |
| 2026-04-29 20:02 | 52.31332 | 4.75450 | 3 ft | 2 kts | 358° |
| 2026-04-29 20:02 | 52.31381 | 4.75446 | 3 ft | 9 kts | 358° |
| 2026-04-29 20:02 | 52.31445 | 4.75442 | 4 ft | 9 kts | 358° |
| 2026-04-29 20:02 | 52.31488 | 4.75433 | 5 ft | 9 kts | 338° |
| 2026-04-29 20:03 | 52.31506 | 4.75302 | 3 ft | 9 kts | 268° |
| 2026-04-29 20:03 | 52.31503 | 4.75193 | -9 ft | 10 kts | 267° |
| 2026-04-29 20:03 | 52.31499 | 4.75078 | 4 ft | 12 kts | 265° |
| 2026-04-29 20:03 | 52.31493 | 4.74908 | 4 ft | 16 kts | 266° |
| 2026-04-29 20:04 | 52.31487 | 4.74747 | 4 ft | 8 kts | 266° |
| 2026-04-29 20:04 | 52.31515 | 4.74673 | 4 ft | 8 kts | 332° |
| 2026-04-29 20:04 | 52.31573 | 4.74657 | 4 ft | 9 kts | 358° |
| 2026-04-29 20:04 | 52.31636 | 4.74676 | 4 ft | 9 kts | 25° |
| 2026-04-29 20:05 | 52.31667 | 4.74790 | 4 ft | 21 kts | 86° |
| 2026-04-29 20:05 | 52.31692 | 4.75469 | 1 ft | 106 kts | 86° |
| 2026-04-29 20:05 | 52.31755 | 4.77150 | 30 ft | 188 kts | 85° |
| 2026-04-29 20:05 | 52.31850 | 4.79328 | 1118 ft | 186 kts | 86° |
| 2026-04-29 20:06 | 52.31917 | 4.81441 | 2231 ft | 193 kts | 88° |
| 2026-04-29 20:06 | 52.31974 | 4.83743 | 2614 ft | 214 kts | 89° |
| 2026-04-29 20:06 | 52.31999 | 4.86222 | 3174 ft | 224 kts | 97° |
| 2026-04-29 20:06 | 52.31582 | 4.88727 | 3827 ft | 232 kts | 111° |
| 2026-04-29 20:07 | 52.30934 | 4.91206 | 4501 ft | 241 kts | 112° |
| 2026-04-29 20:07 | 52.30248 | 4.93744 | 5238 ft | 247 kts | 112° |
| 2026-04-29 20:07 | 52.29560 | 4.96303 | 6009 ft | 249 kts | 111° |
| 2026-04-29 20:07 | 52.28984 | 4.99029 | 6768 ft | 252 kts | 105° |
| 2026-04-29 20:08 | 52.28525 | 5.01757 | 7502 ft | 254 kts | 103° |
| 2026-04-29 20:08 | 52.28214 | 5.03648 | 8001 ft | 256 kts | 103° |
| 2026-04-29 20:08 | 52.27588 | 5.07404 | 8955 ft | 260 kts | 103° |
| 2026-04-29 20:08 | 52.27102 | 5.10267 | 9686 ft | 264 kts | 104° |
| 2026-04-29 20:09 | 52.26602 | 5.13176 | 10390 ft | 267 kts | 104° |
| 2026-04-29 20:09 | 52.26087 | 5.16152 | 10856 ft | 280 kts | 103° |
| 2026-04-29 20:09 | 52.25535 | 5.19317 | 11025 ft | 304 kts | 104° |
| 2026-04-29 20:09 | 52.24927 | 5.22789 | 11211 ft | 327 kts | 104° |
| 2026-04-29 20:10 | 52.24177 | 5.26361 | 11363 ft | 345 kts | 115° |
| 2026-04-29 20:10 | 52.22800 | 5.29695 | 11665 ft | 360 kts | 123° |
| 2026-04-29 20:10 | 52.21301 | 5.33005 | 12363 ft | 365 kts | 123° |
| 2026-04-29 20:10 | 52.19806 | 5.36366 | 13217 ft | 367 kts | 122° |
| 2026-04-29 20:11 | 52.18320 | 5.39745 | 14012 ft | 371 kts | 122° |
| 2026-04-29 20:11 | 52.16798 | 5.43226 | 14727 ft | 376 kts | 122° |
| 2026-04-29 20:11 | 52.15285 | 5.46695 | 15388 ft | 381 kts | 122° |
| 2026-04-29 20:11 | 52.13729 | 5.50264 | 16048 ft | 386 kts | 122° |
| 2026-04-29 20:12 | 52.12178 | 5.53813 | 16724 ft | 391 kts | 122° |
| 2026-04-29 20:12 | 52.10571 | 5.57485 | 17409 ft | 396 kts | 122° |
| 2026-04-29 20:12 | 52.08976 | 5.61124 | 18071 ft | 401 kts | 122° |
| 2026-04-29 20:12 | 52.07345 | 5.64836 | 18721 ft | 406 kts | 122° |
| 2026-04-29 20:13 | 52.05676 | 5.68571 | 19296 ft | 411 kts | 124° |
| 2026-04-29 20:13 | 52.04472 | 5.70962 | 19703 ft | 414 kts | 127° |
| 2026-04-29 20:13 | 52.01912 | 5.75637 | 20506 ft | 419 kts | 128° |
| 2026-04-29 20:13 | 51.99966 | 5.79185 | 21113 ft | 422 kts | 128° |
| 2026-04-29 20:14 | 51.98025 | 5.82789 | 21690 ft | 426 kts | 127° |
| 2026-04-29 20:14 | 51.96734 | 5.85202 | 22067 ft | 428 kts | 127° |
| 2026-04-29 20:14 | 51.94119 | 5.90082 | 22817 ft | 433 kts | 127° |
| 2026-04-29 20:14 | 51.92791 | 5.92556 | 23190 ft | 435 kts | 128° |
| 2026-04-29 20:15 | 51.90136 | 5.97491 | 23918 ft | 440 kts | 128° |
| 2026-04-29 20:15 | 51.88772 | 6.00024 | 24231 ft | 442 kts | 128° |
| 2026-04-29 20:15 | 51.86742 | 6.03785 | 24699 ft | 445 kts | 128° |
| 2026-04-29 20:15 | 51.84697 | 6.07564 | 25183 ft | 447 kts | 128° |
| 2026-04-29 20:16 | 51.82656 | 6.11306 | 25649 ft | 449 kts | 128° |
| 2026-04-29 20:16 | 51.80580 | 6.15099 | 26104 ft | 451 kts | 128° |
| 2026-04-29 20:16 | 51.78485 | 6.18925 | 26545 ft | 454 kts | 127° |
| 2026-04-29 20:16 | 51.76381 | 6.22762 | 26983 ft | 456 kts | 127° |
| 2026-04-29 20:17 | 51.74271 | 6.26614 | 27423 ft | 459 kts | 127° |
| 2026-04-29 20:17 | 51.72153 | 6.30481 | 27836 ft | 461 kts | 127° |
| 2026-04-29 20:17 | 51.70054 | 6.34310 | 28257 ft | 463 kts | 127° |
| 2026-04-29 20:17 | 51.67910 | 6.38215 | 28658 ft | 465 kts | 127° |
| 2026-04-29 20:18 | 51.65755 | 6.42133 | 29035 ft | 467 kts | 127° |
| 2026-04-29 20:18 | 51.63582 | 6.46077 | 29398 ft | 469 kts | 127° |
| 2026-04-29 20:18 | 51.61432 | 6.49970 | 29787 ft | 470 kts | 127° |
| 2026-04-29 20:18 | 51.59255 | 6.53904 | 30305 ft | 468 kts | 127° |
| 2026-04-29 20:19 | 51.57088 | 6.57814 | 30800 ft | 465 kts | 127° |
| 2026-04-29 20:19 | 51.54956 | 6.61658 | 31232 ft | 463 kts | 127° |
| 2026-04-29 20:19 | 51.52799 | 6.65544 | 31627 ft | 462 kts | 127° |
| 2026-04-29 20:19 | 51.50667 | 6.69381 | 31992 ft | 462 kts | 127° |
| 2026-04-29 20:20 | 51.48527 | 6.73228 | 32351 ft | 461 kts | 127° |
| 2026-04-29 20:20 | 51.46385 | 6.77070 | 32725 ft | 459 kts | 127° |
| 2026-04-29 20:20 | 51.44268 | 6.80864 | 33079 ft | 458 kts | 127° |
| 2026-04-29 20:20 | 51.42154 | 6.84645 | 33297 ft | 461 kts | 127° |
| 2026-04-29 20:21 | 51.38231 | 6.92713 | 33342 ft | 457 kts | 119° |
| 2026-04-29 20:21 | 51.34686 | 7.01121 | 33345 ft | 451 kts | 119° |
| 2026-04-29 20:22 | 51.31188 | 7.09373 | 33354 ft | 451 kts | 119° |
| 2026-04-29 20:22 | 51.27644 | 7.17651 | 33349 ft | 451 kts | 120° |
| 2026-04-29 20:23 | 51.24080 | 7.25925 | 33355 ft | 452 kts | 120° |
| 2026-04-29 20:23 | 51.20513 | 7.34178 | 33347 ft | 453 kts | 120° |
| 2026-04-29 20:24 | 51.16914 | 7.42478 | 33348 ft | 454 kts | 120° |
| 2026-04-29 20:24 | 51.13326 | 7.50731 | 33352 ft | 454 kts | 120° |
| 2026-04-29 20:25 | 51.09727 | 7.58981 | 33348 ft | 454 kts | 120° |
| 2026-04-29 20:25 | 51.06127 | 7.67207 | 33354 ft | 454 kts | 120° |
| 2026-04-29 20:26 | 51.02501 | 7.75467 | 33353 ft | 454 kts | 120° |
| 2026-04-29 20:26 | 50.98886 | 7.83681 | 33362 ft | 454 kts | 120° |
| 2026-04-29 20:27 | 50.95871 | 7.90512 | 33354 ft | 454 kts | 120° |
| 2026-04-29 20:27 | 50.91411 | 7.99813 | 33358 ft | 460 kts | 127° |
| 2026-04-29 20:28 | 50.86771 | 8.06931 | 33341 ft | 463 kts | 131° |
| 2026-04-29 20:28 | 50.82128 | 8.13918 | 33357 ft | 463 kts | 130° |
| 2026-04-29 20:29 | 50.77460 | 8.20985 | 33367 ft | 463 kts | 130° |
| 2026-04-29 20:29 | 50.72831 | 8.28006 | 33370 ft | 463 kts | 130° |
| 2026-04-29 20:30 | 50.68160 | 8.35076 | 33345 ft | 463 kts | 130° |
| 2026-04-29 20:30 | 50.63533 | 8.42056 | 33356 ft | 463 kts | 130° |
| 2026-04-29 20:31 | 50.58858 | 8.49088 | 33363 ft | 464 kts | 130° |
| 2026-04-29 20:31 | 50.54176 | 8.56112 | 33372 ft | 464 kts | 130° |
| 2026-04-29 20:32 | 50.49507 | 8.63095 | 33368 ft | 465 kts | 130° |
| 2026-04-29 20:32 | 50.44821 | 8.70084 | 33370 ft | 465 kts | 130° |
| 2026-04-29 20:33 | 50.40144 | 8.77041 | 33362 ft | 466 kts | 130° |
| 2026-04-29 20:33 | 50.35603 | 8.84262 | 33361 ft | 459 kts | 122° |
| 2026-04-29 20:34 | 50.32147 | 8.92541 | 33365 ft | 450 kts | 111° |
| 2026-04-29 20:34 | 50.29570 | 9.01413 | 33363 ft | 449 kts | 108° |
| 2026-04-29 20:35 | 50.27032 | 9.10315 | 33362 ft | 450 kts | 109° |
| 2026-04-29 20:35 | 50.24453 | 9.19228 | 33359 ft | 451 kts | 109° |
| 2026-04-29 20:36 | 50.21835 | 9.28184 | 33356 ft | 452 kts | 109° |
| 2026-04-29 20:36 | 50.19224 | 9.37073 | 33354 ft | 452 kts | 109° |
| 2026-04-29 20:37 | 50.16591 | 9.46008 | 33353 ft | 452 kts | 109° |
| 2026-04-29 20:37 | 50.13967 | 9.54887 | 33365 ft | 452 kts | 109° |
| 2026-04-29 20:38 | 50.11321 | 9.63807 | 33347 ft | 452 kts | 109° |
| 2026-04-29 20:38 | 50.08683 | 9.72666 | 33362 ft | 451 kts | 109° |
| 2026-04-29 20:39 | 50.06579 | 9.81780 | 33372 ft | 444 kts | 99° |
| 2026-04-29 20:39 | 50.05412 | 9.91121 | 33372 ft | 441 kts | 95° |
| 2026-04-29 20:40 | 50.04310 | 10.00521 | 33367 ft | 442 kts | 95° |
| 2026-04-29 20:40 | 50.03180 | 10.09915 | 33377 ft | 443 kts | 95° |
| 2026-04-29 20:41 | 50.02023 | 10.19367 | 33375 ft | 443 kts | 95° |
| 2026-04-29 20:41 | 50.00862 | 10.28773 | 33368 ft | 444 kts | 96° |
| 2026-04-29 20:42 | 49.99695 | 10.38170 | 33374 ft | 444 kts | 96° |
| 2026-04-29 20:42 | 49.98513 | 10.47626 | 33370 ft | 445 kts | 96° |
| 2026-04-29 20:43 | 49.97331 | 10.57025 | 33379 ft | 445 kts | 96° |
| 2026-04-29 20:43 | 49.96120 | 10.66497 | 33373 ft | 446 kts | 96° |
| 2026-04-29 20:44 | 49.94844 | 10.75927 | 33368 ft | 447 kts | 96° |
| 2026-04-29 20:44 | 49.93551 | 10.85336 | 33373 ft | 447 kts | 96° |
| 2026-04-29 20:45 | 49.92255 | 10.94756 | 33375 ft | 447 kts | 96° |
| 2026-04-29 20:45 | 49.90948 | 11.04240 | 33371 ft | 448 kts | 96° |
| 2026-04-29 20:46 | 49.89643 | 11.13657 | 33373 ft | 448 kts | 97° |
| 2026-04-29 20:46 | 49.88318 | 11.23155 | 33375 ft | 449 kts | 97° |
| 2026-04-29 20:47 | 49.86994 | 11.32580 | 33372 ft | 449 kts | 97° |
| 2026-04-29 20:47 | 49.85660 | 11.42023 | 33370 ft | 449 kts | 97° |
| 2026-04-29 20:48 | 49.84319 | 11.51451 | 33363 ft | 450 kts | 97° |
| 2026-04-29 20:48 | 49.82961 | 11.60949 | 33367 ft | 450 kts | 97° |
| 2026-04-29 20:49 | 49.81601 | 11.70392 | 33360 ft | 450 kts | 97° |
| 2026-04-29 20:49 | 49.80225 | 11.79884 | 33350 ft | 451 kts | 97° |
| 2026-04-29 20:50 | 49.78849 | 11.89321 | 33353 ft | 451 kts | 97° |
| 2026-04-29 20:50 | 49.77463 | 11.98778 | 33351 ft | 452 kts | 97° |
| 2026-04-29 20:51 | 49.76058 | 12.08301 | 33361 ft | 452 kts | 97° |
| 2026-04-29 20:51 | 49.74652 | 12.17771 | 33361 ft | 453 kts | 97° |
| 2026-04-29 20:52 | 49.73237 | 12.27241 | 33368 ft | 454 kts | 97° |
| 2026-04-29 20:52 | 49.71803 | 12.36793 | 33377 ft | 455 kts | 97° |
| 2026-04-29 20:53 | 49.70368 | 12.46291 | 33389 ft | 455 kts | 97° |
| 2026-04-29 20:53 | 49.68994 | 12.55878 | 33396 ft | 455 kts | 96° |
| 2026-04-29 20:54 | 49.67029 | 12.70162 | 33397 ft | 456 kts | 96° |
| 2026-04-29 20:55 | 49.65591 | 12.79749 | 33404 ft | 460 kts | 101° |
| 2026-04-29 20:55 | 49.63198 | 12.88996 | 33409 ft | 469 kts | 110° |
| 2026-04-29 20:56 | 49.60315 | 12.97973 | 33407 ft | 470 kts | 110° |
| 2026-04-29 20:56 | 49.57413 | 13.06999 | 33403 ft | 470 kts | 110° |
| 2026-04-29 20:57 | 49.54516 | 13.16074 | 33396 ft | 471 kts | 110° |
| 2026-04-29 20:57 | 49.51634 | 13.25111 | 33407 ft | 472 kts | 110° |
| 2026-04-29 20:58 | 49.48739 | 13.34162 | 33411 ft | 473 kts | 110° |
| 2026-04-29 20:58 | 49.45816 | 13.43264 | 33417 ft | 474 kts | 111° |
| 2026-04-29 20:59 | 49.42879 | 13.52374 | 33425 ft | 476 kts | 111° |
| 2026-04-29 20:59 | 49.39917 | 13.61526 | 33431 ft | 478 kts | 111° |
| 2026-04-29 21:00 | 49.36956 | 13.70644 | 33431 ft | 479 kts | 111° |
| 2026-04-29 21:00 | 49.33980 | 13.79772 | 33426 ft | 480 kts | 111° |
| 2026-04-29 21:01 | 49.30989 | 13.88915 | 33428 ft | 481 kts | 111° |
| 2026-04-29 21:01 | 49.27974 | 13.98098 | 33430 ft | 482 kts | 111° |
| 2026-04-29 21:02 | 49.25459 | 14.05734 | 33433 ft | 483 kts | 111° |
| 2026-04-29 21:02 | 49.22415 | 14.14945 | 33438 ft | 485 kts | 111° |
| 2026-04-29 21:03 | 49.19368 | 14.24131 | 33421 ft | 487 kts | 112° |
| 2026-04-29 21:03 | 49.16276 | 14.33420 | 33433 ft | 488 kts | 112° |
| 2026-04-29 21:04 | 49.13193 | 14.42644 | 33429 ft | 490 kts | 112° |
| 2026-04-29 21:04 | 49.10094 | 14.51885 | 33427 ft | 491 kts | 112° |
| 2026-04-29 21:05 | 49.06955 | 14.61210 | 33424 ft | 493 kts | 112° |
| 2026-04-29 21:05 | 49.03828 | 14.70468 | 33418 ft | 493 kts | 112° |
| 2026-04-29 21:06 | 49.00669 | 14.79783 | 33411 ft | 493 kts | 112° |
| 2026-04-29 21:06 | 48.97528 | 14.89017 | 33415 ft | 493 kts | 113° |
| 2026-04-29 21:07 | 48.94355 | 14.98311 | 33403 ft | 493 kts | 113° |
| 2026-04-29 21:07 | 48.91195 | 15.07537 | 33404 ft | 494 kts | 113° |
| 2026-04-29 21:08 | 48.88037 | 15.16778 | 33407 ft | 494 kts | 113° |
| 2026-04-29 21:08 | 48.84906 | 15.26097 | 33401 ft | 495 kts | 113° |
| 2026-04-29 21:09 | 48.81782 | 15.35395 | 33399 ft | 496 kts | 113° |
| 2026-04-29 21:09 | 48.78624 | 15.44737 | 33400 ft | 497 kts | 114° |
| 2026-04-29 21:10 | 48.75462 | 15.54042 | 33406 ft | 498 kts | 114° |
| 2026-04-29 21:10 | 48.72284 | 15.63356 | 33404 ft | 499 kts | 114° |
| 2026-04-29 21:11 | 48.69099 | 15.72660 | 33406 ft | 500 kts | 114° |
| 2026-04-29 21:11 | 48.65873 | 15.82047 | 33396 ft | 501 kts | 114° |
| 2026-04-29 21:12 | 48.62656 | 15.91377 | 33398 ft | 502 kts | 114° |
| 2026-04-29 21:12 | 48.59410 | 16.00757 | 33393 ft | 503 kts | 114° |
| 2026-04-29 21:13 | 48.56171 | 16.10081 | 33392 ft | 504 kts | 114° |
| 2026-04-29 21:13 | 48.52896 | 16.19475 | 33381 ft | 505 kts | 114° |
| 2026-04-29 21:14 | 48.49606 | 16.28878 | 33397 ft | 505 kts | 115° |
| 2026-04-29 21:14 | 48.46327 | 16.38216 | 33375 ft | 506 kts | 115° |
| 2026-04-29 21:15 | 48.43035 | 16.47560 | 33401 ft | 507 kts | 115° |
| 2026-04-29 21:15 | 48.39712 | 16.56956 | 33389 ft | 508 kts | 115° |
| 2026-04-29 21:16 | 48.36384 | 16.66332 | 33392 ft | 509 kts | 115° |
| 2026-04-29 21:16 | 48.33039 | 16.75723 | 33397 ft | 509 kts | 115° |
| 2026-04-29 21:17 | 48.29694 | 16.85083 | 33390 ft | 510 kts | 116° |
| 2026-04-29 21:17 | 48.26324 | 16.94471 | 33359 ft | 511 kts | 116° |
| 2026-04-29 21:18 | 48.22889 | 17.03769 | 33350 ft | 511 kts | 117° |
| 2026-04-29 21:18 | 48.19395 | 17.13104 | 33348 ft | 512 kts | 117° |
| 2026-04-29 21:19 | 48.15925 | 17.22370 | 33349 ft | 512 kts | 117° |
| 2026-04-29 21:19 | 48.12430 | 17.31700 | 33351 ft | 513 kts | 117° |
| 2026-04-29 21:20 | 48.08945 | 17.40976 | 33348 ft | 513 kts | 118° |
| 2026-04-29 21:20 | 48.05427 | 17.50305 | 33346 ft | 514 kts | 118° |
| 2026-04-29 21:21 | 48.01917 | 17.59581 | 33342 ft | 514 kts | 118° |
| 2026-04-29 21:21 | 47.98395 | 17.68854 | 33336 ft | 515 kts | 118° |
| 2026-04-29 21:22 | 47.94838 | 17.78186 | 33332 ft | 515 kts | 118° |
| 2026-04-29 21:22 | 47.91296 | 17.87448 | 33330 ft | 516 kts | 119° |
| 2026-04-29 21:23 | 47.87715 | 17.96781 | 33329 ft | 518 kts | 119° |
| 2026-04-29 21:23 | 47.84137 | 18.06071 | 33326 ft | 519 kts | 119° |
| 2026-04-29 21:24 | 47.80524 | 18.15422 | 33326 ft | 521 kts | 120° |
| 2026-04-29 21:24 | 47.76910 | 18.24746 | 33327 ft | 522 kts | 120° |
| 2026-04-29 21:25 | 47.73295 | 18.34174 | 33326 ft | 523 kts | 116° |
| 2026-04-29 21:25 | 47.70220 | 18.43894 | 33327 ft | 523 kts | 114° |
| 2026-04-29 21:26 | 47.67195 | 18.53715 | 33317 ft | 524 kts | 114° |
| 2026-04-29 21:26 | 47.64132 | 18.63548 | 33322 ft | 524 kts | 114° |
| 2026-04-29 21:27 | 47.61057 | 18.73306 | 33319 ft | 524 kts | 115° |
| 2026-04-29 21:27 | 47.57966 | 18.83054 | 33320 ft | 523 kts | 115° |
| 2026-04-29 21:28 | 47.54859 | 18.92816 | 33314 ft | 523 kts | 115° |
| 2026-04-29 21:28 | 47.51763 | 19.02516 | 33320 ft | 522 kts | 115° |
| 2026-04-29 21:29 | 47.48643 | 19.12254 | 33319 ft | 522 kts | 116° |
| 2026-04-29 21:29 | 47.45545 | 19.21886 | 33320 ft | 522 kts | 116° |
| 2026-04-29 21:30 | 47.42410 | 19.31595 | 33322 ft | 522 kts | 116° |
| 2026-04-29 21:30 | 47.39283 | 19.41241 | 33323 ft | 522 kts | 116° |
| 2026-04-29 21:31 | 47.36128 | 19.50942 | 33318 ft | 523 kts | 116° |
| 2026-04-29 21:31 | 47.32980 | 19.60580 | 33316 ft | 524 kts | 116° |
| 2026-04-29 21:32 | 47.29809 | 19.70254 | 33305 ft | 525 kts | 117° |
| 2026-04-29 21:32 | 47.26615 | 19.79963 | 33299 ft | 526 kts | 117° |
| 2026-04-29 21:33 | 47.23431 | 19.89602 | 33295 ft | 526 kts | 117° |
| 2026-04-29 21:33 | 47.20205 | 19.99334 | 33296 ft | 528 kts | 117° |
| 2026-04-29 21:34 | 47.16983 | 20.09019 | 33292 ft | 528 kts | 117° |
| 2026-04-29 21:34 | 47.13746 | 20.18708 | 33295 ft | 529 kts | 117° |
| 2026-04-29 21:35 | 47.10489 | 20.28424 | 33294 ft | 530 kts | 117° |
| 2026-04-29 21:35 | 47.07227 | 20.38120 | 33293 ft | 531 kts | 118° |
| 2026-04-29 21:36 | 47.03938 | 20.47857 | 33288 ft | 531 kts | 118° |
| 2026-04-29 21:36 | 47.00661 | 20.57521 | 33282 ft | 532 kts | 118° |
| 2026-04-29 21:37 | 46.97354 | 20.67240 | 33273 ft | 532 kts | 118° |
| 2026-04-29 21:37 | 46.94058 | 20.76891 | 33271 ft | 533 kts | 118° |
| 2026-04-29 21:38 | 46.90737 | 20.86578 | 33266 ft | 533 kts | 118° |
| 2026-04-29 21:38 | 46.87401 | 20.96273 | 33265 ft | 533 kts | 118° |
| 2026-04-29 21:39 | 46.84058 | 21.05954 | 33262 ft | 534 kts | 118° |
| 2026-04-29 21:39 | 46.80702 | 21.15637 | 33259 ft | 535 kts | 119° |
| 2026-04-29 21:40 | 46.77329 | 21.25331 | 33251 ft | 536 kts | 119° |
| 2026-04-29 21:40 | 46.73944 | 21.35026 | 33251 ft | 537 kts | 119° |
| 2026-04-29 21:41 | 46.70541 | 21.44744 | 33248 ft | 538 kts | 119° |
| 2026-04-29 21:41 | 46.67095 | 21.54436 | 33245 ft | 539 kts | 121° |
| 2026-04-29 21:42 | 46.63526 | 21.63960 | 33245 ft | 540 kts | 121° |
| 2026-04-29 21:42 | 46.60500 | 21.71925 | 33238 ft | 541 kts | 121° |
| 2026-04-29 21:43 | 46.56252 | 21.83143 | 33236 ft | 542 kts | 121° |
| 2026-04-29 21:43 | 46.52613 | 21.92775 | 33236 ft | 543 kts | 121° |
| 2026-04-29 21:44 | 46.48990 | 22.02339 | 33232 ft | 544 kts | 121° |
| 2026-04-29 21:44 | 46.45323 | 22.11982 | 33232 ft | 545 kts | 121° |
| 2026-04-29 21:45 | 46.41646 | 22.21610 | 33231 ft | 545 kts | 122° |
| 2026-04-29 21:45 | 46.37959 | 22.31231 | 33237 ft | 546 kts | 122° |
| 2026-04-29 21:46 | 46.34262 | 22.40844 | 33226 ft | 546 kts | 122° |
| 2026-04-29 21:46 | 46.30563 | 22.50428 | 33234 ft | 546 kts | 122° |
| 2026-04-29 21:47 | 46.26876 | 22.59946 | 33236 ft | 546 kts | 122° |
| 2026-04-29 21:47 | 46.23156 | 22.69518 | 33235 ft | 546 kts | 122° |
| 2026-04-29 21:48 | 46.19432 | 22.79066 | 33236 ft | 546 kts | 122° |
| 2026-04-29 21:48 | 46.15693 | 22.88620 | 33231 ft | 546 kts | 122° |
| 2026-04-29 21:49 | 46.11949 | 22.98154 | 33234 ft | 546 kts | 122° |
| 2026-04-29 21:49 | 46.08202 | 23.07663 | 33229 ft | 546 kts | 123° |
| 2026-04-29 21:50 | 46.04471 | 23.17098 | 33228 ft | 545 kts | 123° |
| 2026-04-29 21:50 | 46.00713 | 23.26565 | 33222 ft | 545 kts | 123° |
| 2026-04-29 21:51 | 45.96949 | 23.36018 | 33218 ft | 544 kts | 123° |
| 2026-04-29 21:51 | 45.91926 | 23.48583 | 33220 ft | 544 kts | 123° |
| 2026-04-29 21:52 | 45.88148 | 23.57994 | 33221 ft | 544 kts | 123° |
| 2026-04-29 21:52 | 45.84363 | 23.67392 | 33209 ft | 544 kts | 123° |
| 2026-04-29 21:53 | 45.80563 | 23.76798 | 33222 ft | 544 kts | 123° |
| 2026-04-29 21:53 | 45.76783 | 23.86120 | 33213 ft | 544 kts | 124° |
| 2026-04-29 21:54 | 45.72976 | 23.95479 | 33215 ft | 544 kts | 124° |
| 2026-04-29 21:54 | 45.69157 | 24.04836 | 33211 ft | 544 kts | 124° |
| 2026-04-29 21:55 | 45.65325 | 24.14195 | 33213 ft | 545 kts | 124° |
| 2026-04-29 21:55 | 45.61471 | 24.23520 | 33217 ft | 545 kts | 124° |
| 2026-04-29 21:56 | 45.57570 | 24.32728 | 33220 ft | 545 kts | 125° |
| 2026-04-29 21:56 | 45.53623 | 24.41984 | 33220 ft | 545 kts | 125° |
| 2026-04-29 21:57 | 45.49681 | 24.51232 | 33205 ft | 546 kts | 125° |
| 2026-04-29 21:57 | 45.45735 | 24.60479 | 33210 ft | 545 kts | 125° |
| 2026-04-29 21:58 | 45.41784 | 24.69707 | 33216 ft | 546 kts | 125° |
| 2026-04-29 21:58 | 45.37820 | 24.78936 | 33206 ft | 547 kts | 125° |
| 2026-04-29 21:59 | 45.33847 | 24.88154 | 33217 ft | 547 kts | 125° |
| 2026-04-29 21:59 | 45.29854 | 24.97386 | 33220 ft | 548 kts | 125° |
| 2026-04-29 22:00 | 45.25852 | 25.06609 | 33222 ft | 548 kts | 125° |
| 2026-04-29 22:00 | 45.21866 | 25.15767 | 33221 ft | 549 kts | 125° |
| 2026-04-29 22:01 | 45.17848 | 25.24968 | 33214 ft | 549 kts | 125° |
| 2026-04-29 22:01 | 45.13817 | 25.34167 | 33210 ft | 549 kts | 125° |
| 2026-04-29 22:02 | 45.09783 | 25.43347 | 33211 ft | 548 kts | 125° |
| 2026-04-29 22:02 | 45.05744 | 25.52507 | 33207 ft | 548 kts | 125° |
| 2026-04-29 22:03 | 45.01728 | 25.61586 | 33222 ft | 548 kts | 125° |
| 2026-04-29 22:03 | 44.97677 | 25.70714 | 33213 ft | 548 kts | 125° |
| 2026-04-29 22:04 | 44.93617 | 25.79833 | 33200 ft | 547 kts | 125° |
| 2026-04-29 22:04 | 44.89563 | 25.88909 | 33200 ft | 547 kts | 125° |
| 2026-04-29 22:05 | 44.85503 | 25.97971 | 33203 ft | 546 kts | 125° |
| 2026-04-29 22:06 | 44.79428 | 26.11475 | 33202 ft | 546 kts | 125° |
| 2026-04-29 22:06 | 44.75359 | 26.20486 | 33210 ft | 545 kts | 125° |
| 2026-04-29 22:07 | 44.71281 | 26.29488 | 33205 ft | 545 kts | 125° |
| 2026-04-29 22:07 | 44.67205 | 26.38458 | 33203 ft | 544 kts | 125° |
| 2026-04-29 22:08 | 44.63122 | 26.47418 | 33202 ft | 543 kts | 125° |
| 2026-04-29 22:08 | 44.59046 | 26.56336 | 33193 ft | 542 kts | 125° |
| 2026-04-29 22:09 | 44.55097 | 26.65361 | 33188 ft | 542 kts | 123° |
| 2026-04-29 22:09 | 44.51285 | 26.74386 | 33186 ft | 541 kts | 123° |
| 2026-04-29 22:10 | 44.47440 | 26.83437 | 33184 ft | 540 kts | 123° |
| 2026-04-29 22:10 | 44.43568 | 26.92442 | 33181 ft | 540 kts | 124° |
| 2026-04-29 22:11 | 44.39677 | 27.01430 | 33180 ft | 539 kts | 124° |
| 2026-04-29 22:11 | 44.35781 | 27.10403 | 33183 ft | 539 kts | 124° |
| 2026-04-29 22:12 | 44.31882 | 27.19361 | 33181 ft | 540 kts | 124° |
| 2026-04-29 22:12 | 44.27970 | 27.28322 | 33183 ft | 540 kts | 124° |
| 2026-04-29 22:13 | 44.24051 | 27.37276 | 33177 ft | 540 kts | 124° |
| 2026-04-29 22:13 | 44.20127 | 27.46210 | 33183 ft | 540 kts | 124° |
| 2026-04-29 22:14 | 44.16217 | 27.55085 | 33186 ft | 541 kts | 124° |
| 2026-04-29 22:14 | 44.12277 | 27.63999 | 33183 ft | 540 kts | 124° |
| 2026-04-29 22:15 | 44.08328 | 27.72908 | 33189 ft | 540 kts | 124° |
| 2026-04-29 22:15 | 44.04378 | 27.81791 | 33184 ft | 540 kts | 124° |
| 2026-04-29 22:16 | 44.00422 | 27.90661 | 33184 ft | 539 kts | 124° |
| 2026-04-29 22:16 | 43.96469 | 27.99496 | 33181 ft | 538 kts | 124° |
| 2026-04-29 22:17 | 43.92511 | 28.08316 | 33191 ft | 538 kts | 124° |
| 2026-04-29 22:17 | 43.88549 | 28.17118 | 33193 ft | 537 kts | 124° |
| 2026-04-29 22:18 | 43.84608 | 28.25846 | 33191 ft | 537 kts | 124° |
| 2026-04-29 22:18 | 43.80637 | 28.34617 | 33199 ft | 537 kts | 124° |
| 2026-04-29 22:19 | 43.76669 | 28.43357 | 33195 ft | 537 kts | 124° |
| 2026-04-29 22:19 | 43.72680 | 28.52113 | 33185 ft | 537 kts | 125° |
| 2026-04-29 22:20 | 43.68675 | 28.60817 | 33203 ft | 537 kts | 125° |
| 2026-04-29 22:20 | 43.64654 | 28.69511 | 33198 ft | 536 kts | 125° |
| 2026-04-29 22:21 | 43.60637 | 28.78181 | 33199 ft | 536 kts | 125° |
| 2026-04-29 22:21 | 43.56612 | 28.86850 | 33199 ft | 536 kts | 125° |
| 2026-04-29 22:22 | 43.52614 | 28.95440 | 33202 ft | 535 kts | 125° |
| 2026-04-29 22:22 | 43.48589 | 29.04058 | 33200 ft | 535 kts | 125° |
| 2026-04-29 22:23 | 43.44556 | 29.12669 | 33200 ft | 534 kts | 125° |
| 2026-04-29 22:23 | 43.40521 | 29.21260 | 33198 ft | 534 kts | 125° |
| 2026-04-29 22:24 | 43.36486 | 29.29823 | 33196 ft | 533 kts | 125° |
| 2026-04-29 22:24 | 43.32471 | 29.38322 | 33199 ft | 533 kts | 125° |
| 2026-04-29 22:25 | 43.28429 | 29.46851 | 33197 ft | 533 kts | 125° |
| 2026-04-29 22:25 | 43.24380 | 29.55373 | 33197 ft | 532 kts | 125° |
| 2026-04-29 22:26 | 43.20330 | 29.63869 | 33196 ft | 532 kts | 126° |
| 2026-04-29 22:26 | 43.16272 | 29.72361 | 33197 ft | 532 kts | 126° |
| 2026-04-29 22:27 | 43.12208 | 29.80838 | 33193 ft | 532 kts | 126° |
| 2026-04-29 22:27 | 43.08140 | 29.89301 | 33195 ft | 532 kts | 126° |
| 2026-04-29 22:28 | 43.04065 | 29.97755 | 33186 ft | 532 kts | 126° |
| 2026-04-29 22:28 | 43.00006 | 30.06151 | 33198 ft | 533 kts | 127° |
| 2026-04-29 22:29 | 42.96576 | 30.13226 | 33194 ft | 533 kts | 127° |
| 2026-04-29 22:29 | 42.91800 | 30.23051 | 33194 ft | 534 kts | 127° |
| 2026-04-29 22:30 | 42.87687 | 30.31488 | 33188 ft | 533 kts | 127° |
| 2026-04-29 22:30 | 42.83576 | 30.39898 | 33188 ft | 533 kts | 127° |
| 2026-04-29 22:31 | 42.79459 | 30.48298 | 33189 ft | 532 kts | 127° |
| 2026-04-29 22:31 | 42.75474 | 30.56719 | 33186 ft | 534 kts | 121° |
| 2026-04-29 22:32 | 42.72426 | 30.65930 | 33185 ft | 536 kts | 110° |
| 2026-04-29 22:32 | 42.70309 | 30.75639 | 33192 ft | 536 kts | 107° |
| 2026-04-29 22:33 | 42.68251 | 30.85380 | 33177 ft | 536 kts | 107° |
| 2026-04-29 22:33 | 42.66148 | 30.95108 | 33180 ft | 535 kts | 107° |
| 2026-04-29 22:34 | 42.64018 | 31.04782 | 33181 ft | 535 kts | 108° |
| 2026-04-29 22:34 | 42.61881 | 31.14411 | 33191 ft | 535 kts | 108° |
| 2026-04-29 22:35 | 42.59727 | 31.24084 | 33189 ft | 535 kts | 108° |
| 2026-04-29 22:35 | 42.57568 | 31.33750 | 33170 ft | 535 kts | 108° |
| 2026-04-29 22:36 | 42.55405 | 31.43394 | 33173 ft | 534 kts | 108° |
| 2026-04-29 22:36 | 42.53234 | 31.53030 | 33175 ft | 534 kts | 108° |
| 2026-04-29 22:37 | 42.51053 | 31.62667 | 33169 ft | 534 kts | 108° |
| 2026-04-29 22:37 | 42.48879 | 31.72229 | 33168 ft | 534 kts | 108° |
| 2026-04-29 22:38 | 42.46683 | 31.81846 | 33174 ft | 534 kts | 108° |
| 2026-04-29 22:38 | 42.44478 | 31.91460 | 33176 ft | 534 kts | 108° |
| 2026-04-29 22:39 | 42.42267 | 32.01058 | 33172 ft | 533 kts | 108° |
| 2026-04-29 22:39 | 42.40050 | 32.10646 | 33158 ft | 533 kts | 108° |
| 2026-04-29 22:40 | 42.38202 | 32.18602 | 33178 ft | 533 kts | 108° |
| 2026-04-29 22:40 | 42.35597 | 32.29771 | 33550 ft | 537 kts | 108° |
| 2026-04-29 22:40 | 42.34471 | 32.34579 | 33946 ft | 535 kts | 108° |
| 2026-04-29 22:41 | 42.33727 | 32.37755 | 34206 ft | 534 kts | 108° |
| 2026-04-29 22:41 | 42.32607 | 32.42522 | 34512 ft | 532 kts | 108° |
| 2026-04-29 22:41 | 42.31483 | 32.47298 | 34812 ft | 532 kts | 109° |
| 2026-04-29 22:41 | 42.30363 | 32.52049 | 35059 ft | 532 kts | 109° |
| 2026-04-29 22:42 | 42.29234 | 32.56822 | 35108 ft | 534 kts | 109° |
| 2026-04-29 22:42 | 42.26967 | 32.66382 | 35153 ft | 533 kts | 109° |
| 2026-04-29 22:43 | 42.24707 | 32.75874 | 35156 ft | 530 kts | 109° |
| 2026-04-29 22:43 | 42.22461 | 32.85265 | 35159 ft | 528 kts | 109° |
| 2026-04-29 22:44 | 42.20198 | 32.94689 | 35159 ft | 527 kts | 109° |
| 2026-04-29 22:44 | 42.17928 | 33.04103 | 35159 ft | 528 kts | 109° |
| 2026-04-29 22:45 | 42.15648 | 33.13524 | 35163 ft | 529 kts | 109° |
| 2026-04-29 22:45 | 42.12984 | 33.24478 | 35162 ft | 530 kts | 109° |
| 2026-04-29 22:46 | 42.11052 | 33.32388 | 35161 ft | 531 kts | 109° |
| 2026-04-29 22:46 | 42.08747 | 33.41793 | 35168 ft | 532 kts | 109° |
| 2026-04-29 22:47 | 42.06421 | 33.51246 | 35166 ft | 532 kts | 109° |
| 2026-04-29 22:47 | 42.04085 | 33.60701 | 35165 ft | 532 kts | 109° |
| 2026-04-29 22:48 | 42.01742 | 33.70146 | 35170 ft | 532 kts | 109° |
| 2026-04-29 22:48 | 41.99393 | 33.79577 | 35170 ft | 531 kts | 109° |
| 2026-04-29 22:49 | 41.97038 | 33.88993 | 35174 ft | 531 kts | 109° |
| 2026-04-29 22:49 | 41.94693 | 33.98331 | 35164 ft | 530 kts | 109° |
| 2026-04-29 22:50 | 41.92331 | 34.07701 | 35187 ft | 529 kts | 109° |
| 2026-04-29 22:50 | 41.89961 | 34.17071 | 35167 ft | 529 kts | 110° |
| 2026-04-29 22:51 | 41.87586 | 34.26417 | 35173 ft | 529 kts | 110° |
| 2026-04-29 22:51 | 41.84007 | 34.40432 | 35179 ft | 529 kts | 110° |
| 2026-04-29 22:52 | 41.81607 | 34.49786 | 35184 ft | 529 kts | 110° |
| 2026-04-29 22:52 | 41.79223 | 34.59043 | 35184 ft | 528 kts | 110° |
| 2026-04-29 22:53 | 41.76817 | 34.68345 | 35178 ft | 528 kts | 110° |
| 2026-04-29 22:53 | 41.74403 | 34.77647 | 35179 ft | 528 kts | 110° |
| 2026-04-29 22:54 | 41.71982 | 34.86935 | 35178 ft | 527 kts | 110° |
| 2026-04-29 22:54 | 41.69561 | 34.96192 | 35177 ft | 527 kts | 110° |
| 2026-04-29 22:55 | 41.67134 | 35.05434 | 35175 ft | 526 kts | 110° |
| 2026-04-29 22:55 | 41.64699 | 35.14668 | 35181 ft | 526 kts | 110° |
| 2026-04-29 22:56 | 41.62261 | 35.23884 | 35169 ft | 525 kts | 110° |
| 2026-04-29 22:56 | 41.59821 | 35.33075 | 35169 ft | 525 kts | 110° |
| 2026-04-29 22:57 | 41.57387 | 35.42206 | 35163 ft | 525 kts | 110° |
| 2026-04-29 22:57 | 41.54928 | 35.51394 | 35169 ft | 525 kts | 111° |
| 2026-04-29 22:58 | 41.52458 | 35.60593 | 35157 ft | 525 kts | 111° |
| 2026-04-29 22:58 | 41.49997 | 35.69723 | 35168 ft | 525 kts | 111° |
| 2026-04-29 22:59 | 41.47513 | 35.78900 | 35167 ft | 526 kts | 111° |
| 2026-04-29 22:59 | 41.45020 | 35.88080 | 35173 ft | 526 kts | 111° |
| 2026-04-29 23:00 | 41.42518 | 35.97263 | 35175 ft | 527 kts | 111° |
| 2026-04-29 23:00 | 41.40035 | 36.06339 | 35240 ft | 514 kts | 111° |
| 2026-04-29 23:01 | 41.38827 | 36.10749 | 35174 ft | 498 kts | 111° |
| 2026-04-29 23:01 | 41.37655 | 36.15020 | 35165 ft | 484 kts | 111° |
| 2026-04-29 23:01 | 41.35352 | 36.23377 | 35186 ft | 483 kts | 111° |
| 2026-04-29 23:02 | 41.33000 | 36.31877 | 35205 ft | 493 kts | 111° |
| 2026-04-29 23:02 | 41.30626 | 36.40441 | 35190 ft | 497 kts | 111° |
| 2026-04-29 23:03 | 41.28226 | 36.49073 | 35181 ft | 497 kts | 111° |
| 2026-04-29 23:03 | 41.26370 | 36.57915 | 35185 ft | 498 kts | 101° |
| 2026-04-29 23:04 | 41.25601 | 36.67072 | 35193 ft | 497 kts | 96° |
| 2026-04-29 23:04 | 41.24977 | 36.76225 | 35186 ft | 497 kts | 96° |
| 2026-04-29 23:05 | 41.24305 | 36.85375 | 35191 ft | 497 kts | 97° |
| 2026-04-29 23:05 | 41.23601 | 36.94510 | 35190 ft | 497 kts | 97° |
| 2026-04-29 23:06 | 41.22887 | 37.03661 | 35196 ft | 498 kts | 97° |
| 2026-04-29 23:06 | 41.22172 | 37.12765 | 35197 ft | 499 kts | 97° |
| 2026-04-29 23:07 | 41.21445 | 37.21947 | 35193 ft | 500 kts | 97° |
| 2026-04-29 23:07 | 41.20758 | 37.31155 | 35201 ft | 501 kts | 97° |
| 2026-04-29 23:08 | 41.20102 | 37.40385 | 35192 ft | 502 kts | 97° |
| 2026-04-29 23:08 | 41.19429 | 37.49629 | 35190 ft | 503 kts | 97° |
| 2026-04-29 23:09 | 41.18778 | 37.58825 | 35190 ft | 504 kts | 95° |
| 2026-04-29 23:09 | 41.18255 | 37.68108 | 35203 ft | 504 kts | 98° |
| 2026-04-29 23:10 | 41.17391 | 37.77342 | 35195 ft | 504 kts | 99° |
| 2026-04-29 23:10 | 41.16550 | 37.86587 | 35198 ft | 504 kts | 98° |
| 2026-04-29 23:11 | 41.15789 | 37.95840 | 35182 ft | 505 kts | 97° |
| 2026-04-29 23:11 | 41.15076 | 38.05067 | 35193 ft | 505 kts | 97° |
| 2026-04-29 23:12 | 41.14342 | 38.14339 | 35178 ft | 505 kts | 98° |
| 2026-04-29 23:12 | 41.13593 | 38.23608 | 35193 ft | 505 kts | 98° |
| 2026-04-29 23:13 | 41.12833 | 38.32874 | 35196 ft | 505 kts | 98° |
| 2026-04-29 23:13 | 41.12065 | 38.42066 | 35197 ft | 505 kts | 98° |
| 2026-04-29 23:14 | 41.11287 | 38.51317 | 35200 ft | 505 kts | 98° |
| 2026-04-29 23:14 | 41.10503 | 38.60569 | 35199 ft | 505 kts | 98° |
| 2026-04-29 23:15 | 41.09728 | 38.69832 | 35194 ft | 505 kts | 98° |
| 2026-04-29 23:15 | 41.08912 | 38.79087 | 35192 ft | 505 kts | 98° |
| 2026-04-29 23:16 | 41.08057 | 38.88324 | 35194 ft | 505 kts | 98° |
| 2026-04-29 23:16 | 41.07200 | 38.97571 | 35193 ft | 505 kts | 98° |
| 2026-04-29 23:17 | 41.06344 | 39.06808 | 35190 ft | 505 kts | 98° |
| 2026-04-29 23:17 | 41.05481 | 39.16053 | 35189 ft | 505 kts | 98° |
| 2026-04-29 23:18 | 41.04630 | 39.25292 | 35186 ft | 505 kts | 98° |
| 2026-04-29 23:18 | 41.03783 | 39.34478 | 35200 ft | 505 kts | 98° |
| 2026-04-29 23:19 | 41.02922 | 39.43718 | 35190 ft | 506 kts | 98° |
| 2026-04-29 23:19 | 41.02050 | 39.52978 | 35201 ft | 506 kts | 99° |
| 2026-04-29 23:20 | 41.01172 | 39.62209 | 35204 ft | 505 kts | 99° |
| 2026-04-29 23:20 | 41.00289 | 39.71438 | 35211 ft | 505 kts | 99° |
| 2026-04-29 23:21 | 40.99444 | 39.80668 | 35215 ft | 505 kts | 95° |
| 2026-04-29 23:21 | 40.99198 | 39.89960 | 35219 ft | 505 kts | 92° |
| 2026-04-29 23:22 | 40.99028 | 39.99212 | 35207 ft | 506 kts | 92° |
| 2026-04-29 23:22 | 40.98809 | 40.08532 | 35201 ft | 506 kts | 93° |
| 2026-04-29 23:23 | 40.98567 | 40.17868 | 35195 ft | 507 kts | 93° |
| 2026-04-29 23:23 | 40.98319 | 40.27191 | 35190 ft | 507 kts | 93° |
| 2026-04-29 23:24 | 40.98065 | 40.36520 | 35195 ft | 507 kts | 93° |
| 2026-04-29 23:24 | 40.97805 | 40.45816 | 35186 ft | 508 kts | 93° |
| 2026-04-29 23:25 | 40.97535 | 40.55170 | 35181 ft | 508 kts | 93° |
| 2026-04-29 23:25 | 40.97260 | 40.64523 | 35179 ft | 508 kts | 93° |
| 2026-04-29 23:26 | 40.96975 | 40.73864 | 35180 ft | 508 kts | 93° |
| 2026-04-29 23:26 | 40.96685 | 40.83202 | 35178 ft | 508 kts | 94° |
| 2026-04-29 23:27 | 40.96386 | 40.92539 | 35174 ft | 507 kts | 94° |
| 2026-04-29 23:27 | 40.96074 | 41.01852 | 35171 ft | 507 kts | 94° |
| 2026-04-29 23:28 | 40.95755 | 41.11170 | 35160 ft | 506 kts | 94° |
| 2026-04-29 23:28 | 40.95485 | 41.18914 | 35144 ft | 506 kts | 94° |
| 2026-04-29 23:29 | 40.95096 | 41.29758 | 35150 ft | 512 kts | 92° |
| 2026-04-29 23:29 | 40.94751 | 41.39252 | 35159 ft | 519 kts | 92° |
| 2026-04-29 23:30 | 40.94454 | 41.47233 | 35154 ft | 518 kts | 92° |
| 2026-04-29 23:30 | 40.94094 | 41.56678 | 35167 ft | 517 kts | 92° |
| 2026-04-29 23:31 | 40.93725 | 41.66180 | 35172 ft | 515 kts | 93° |
| 2026-04-29 23:31 | 40.93350 | 41.75627 | 35162 ft | 514 kts | 93° |
| 2026-04-29 23:32 | 40.92969 | 41.85050 | 35168 ft | 512 kts | 93° |
| 2026-04-29 23:32 | 40.92581 | 41.94432 | 35171 ft | 510 kts | 93° |
| 2026-04-29 23:33 | 40.92186 | 42.03793 | 35165 ft | 508 kts | 93° |
| 2026-04-29 23:33 | 40.91786 | 42.13131 | 35153 ft | 508 kts | 94° |
| 2026-04-29 23:34 | 40.91380 | 42.22397 | 35143 ft | 508 kts | 94° |
| 2026-04-29 23:34 | 40.90965 | 42.31706 | 35133 ft | 507 kts | 94° |
| 2026-04-29 23:35 | 40.90542 | 42.41015 | 35136 ft | 508 kts | 94° |
| 2026-04-29 23:35 | 40.90111 | 42.50338 | 35139 ft | 508 kts | 94° |
| 2026-04-29 23:36 | 40.89673 | 42.59668 | 35132 ft | 508 kts | 94° |
| 2026-04-29 23:36 | 40.89227 | 42.69001 | 35134 ft | 508 kts | 94° |
| 2026-04-29 23:37 | 40.88773 | 42.78337 | 35133 ft | 509 kts | 94° |
| 2026-04-29 23:37 | 40.88315 | 42.87612 | 35137 ft | 509 kts | 94° |
| 2026-04-29 23:38 | 40.87845 | 42.96951 | 35130 ft | 509 kts | 94° |
| 2026-04-29 23:38 | 40.87368 | 43.06291 | 35130 ft | 509 kts | 94° |
| 2026-04-29 23:39 | 40.86884 | 43.15626 | 35123 ft | 510 kts | 94° |
| 2026-04-29 23:39 | 40.86393 | 43.24962 | 35125 ft | 510 kts | 95° |
| 2026-04-29 23:40 | 40.85893 | 43.34310 | 35122 ft | 510 kts | 95° |
| 2026-04-29 23:40 | 40.85385 | 43.43653 | 35124 ft | 510 kts | 95° |
| 2026-04-29 23:41 | 40.84870 | 43.53011 | 35122 ft | 511 kts | 95° |
| 2026-04-29 23:41 | 40.84346 | 43.62387 | 35131 ft | 512 kts | 95° |
| 2026-04-29 23:42 | 40.83835 | 43.71775 | 35127 ft | 512 kts | 94° |
| 2026-04-29 23:42 | 40.83522 | 43.81175 | 35134 ft | 513 kts | 92° |
| 2026-04-29 23:43 | 40.83266 | 43.90541 | 35132 ft | 513 kts | 93° |
| 2026-04-29 23:43 | 40.82977 | 43.99948 | 35133 ft | 513 kts | 93° |
| 2026-04-29 23:44 | 40.82656 | 44.09363 | 35118 ft | 512 kts | 94° |
| 2026-04-29 23:44 | 40.82323 | 44.18762 | 35117 ft | 512 kts | 94° |
| 2026-04-29 23:45 | 40.81984 | 44.28139 | 35105 ft | 511 kts | 94° |
| 2026-04-29 23:45 | 40.81638 | 44.37512 | 35102 ft | 510 kts | 94° |
| 2026-04-29 23:46 | 40.81290 | 44.46800 | 35095 ft | 510 kts | 94° |
| 2026-04-29 23:46 | 40.80932 | 44.56144 | 35098 ft | 509 kts | 94° |
| 2026-04-29 23:47 | 40.80566 | 44.65476 | 35098 ft | 509 kts | 94° |
| 2026-04-29 23:47 | 40.80193 | 44.74788 | 35098 ft | 508 kts | 94° |
| 2026-04-29 23:48 | 40.79813 | 44.84091 | 35099 ft | 508 kts | 95° |
| 2026-04-29 23:48 | 40.79426 | 44.93390 | 35107 ft | 507 kts | 95° |
| 2026-04-29 23:49 | 40.79031 | 45.02698 | 35109 ft | 508 kts | 95° |
| 2026-04-29 23:49 | 40.78632 | 45.11950 | 35108 ft | 508 kts | 95° |
| 2026-04-29 23:50 | 40.78220 | 45.21266 | 35106 ft | 508 kts | 95° |
| 2026-04-29 23:51 | 40.77591 | 45.35241 | 35111 ft | 508 kts | 95° |
| 2026-04-29 23:51 | 40.77164 | 45.44555 | 35112 ft | 508 kts | 95° |
| 2026-04-29 23:52 | 40.76631 | 45.53847 | 35111 ft | 508 kts | 98° |
| 2026-04-29 23:52 | 40.75801 | 45.63100 | 35104 ft | 507 kts | 99° |
| 2026-04-29 23:53 | 40.74928 | 45.72287 | 35107 ft | 507 kts | 99° |
| 2026-04-29 23:53 | 40.74067 | 45.81514 | 35105 ft | 507 kts | 99° |
| 2026-04-29 23:54 | 40.73216 | 45.90749 | 35107 ft | 507 kts | 99° |
| 2026-04-29 23:54 | 40.72360 | 45.99983 | 35109 ft | 506 kts | 99° |
| 2026-04-29 23:55 | 40.71503 | 46.09141 | 35132 ft | 506 kts | 99° |
| 2026-04-29 23:55 | 40.70634 | 46.18346 | 35129 ft | 506 kts | 99° |
| 2026-04-29 23:56 | 40.69754 | 46.27559 | 35131 ft | 506 kts | 99° |
| 2026-04-29 23:56 | 40.68868 | 46.36770 | 35125 ft | 506 kts | 99° |
| 2026-04-29 23:57 | 40.67978 | 46.45952 | 35126 ft | 505 kts | 99° |
| 2026-04-29 23:57 | 40.67080 | 46.55134 | 35120 ft | 505 kts | 99° |
| 2026-04-29 23:58 | 40.66182 | 46.64236 | 35109 ft | 504 kts | 99° |
| 2026-04-29 23:58 | 40.65272 | 46.73389 | 35101 ft | 504 kts | 99° |
| 2026-04-29 23:59 | 40.64356 | 46.82534 | 35107 ft | 504 kts | 99° |
| 2026-04-29 23:59 | 40.63432 | 46.91669 | 35107 ft | 503 kts | 100° |
| 2026-04-30 00:00 | 40.62503 | 47.00796 | 35105 ft | 503 kts | 100° |
| 2026-04-30 00:00 | 40.61566 | 47.09933 | 35116 ft | 503 kts | 100° |
| 2026-04-30 00:01 | 40.60660 | 47.19049 | 35111 ft | 503 kts | 97° |
| 2026-04-30 00:01 | 40.60342 | 47.28258 | 35123 ft | 503 kts | 94° |
| 2026-04-30 00:02 | 40.60126 | 47.37465 | 35124 ft | 504 kts | 94° |
| 2026-04-30 00:02 | 40.59873 | 47.46681 | 35127 ft | 504 kts | 94° |
| 2026-04-30 00:03 | 40.59589 | 47.55885 | 35122 ft | 504 kts | 94° |
| 2026-04-30 00:03 | 40.59297 | 47.65025 | 35127 ft | 503 kts | 94° |
| 2026-04-30 00:04 | 40.58999 | 47.74223 | 35129 ft | 503 kts | 94° |
| 2026-04-30 00:04 | 40.58694 | 47.83427 | 35127 ft | 503 kts | 94° |
| 2026-04-30 00:05 | 40.58382 | 47.92627 | 35132 ft | 503 kts | 94° |
| 2026-04-30 00:05 | 40.58431 | 48.01828 | 35136 ft | 504 kts | 89° |
| 2026-04-30 00:06 | 40.58743 | 48.11042 | 35129 ft | 504 kts | 89° |
| 2026-04-30 00:06 | 40.58994 | 48.20205 | 35125 ft | 504 kts | 89° |
| 2026-04-30 00:07 | 40.59239 | 48.29418 | 35128 ft | 503 kts | 89° |
| 2026-04-30 00:07 | 40.59482 | 48.38629 | 35134 ft | 503 kts | 89° |
| 2026-04-30 00:08 | 40.59719 | 48.47844 | 35129 ft | 503 kts | 89° |
| 2026-04-30 00:08 | 40.59947 | 48.57058 | 35123 ft | 503 kts | 89° |
| 2026-04-30 00:09 | 40.60167 | 48.66208 | 35119 ft | 503 kts | 90° |
| 2026-04-30 00:09 | 40.60380 | 48.75408 | 35126 ft | 503 kts | 90° |
| 2026-04-30 00:10 | 40.60586 | 48.84607 | 35115 ft | 503 kts | 90° |
| 2026-04-30 00:10 | 40.60785 | 48.93825 | 35114 ft | 503 kts | 90° |
| 2026-04-30 00:11 | 40.60977 | 49.03025 | 35112 ft | 502 kts | 90° |
| 2026-04-30 00:11 | 40.61161 | 49.12204 | 35118 ft | 502 kts | 90° |
| 2026-04-30 00:12 | 40.61348 | 49.21388 | 35117 ft | 502 kts | 89° |
| 2026-04-30 00:12 | 40.61822 | 49.30496 | 35113 ft | 502 kts | 86° |
| 2026-04-30 00:13 | 40.62426 | 49.39645 | 35119 ft | 501 kts | 86° |
| 2026-04-30 00:13 | 40.62985 | 49.48794 | 35110 ft | 501 kts | 87° |
| 2026-04-30 00:14 | 40.63498 | 49.57936 | 35115 ft | 500 kts | 87° |
| 2026-04-30 00:14 | 40.63994 | 49.67064 | 35112 ft | 500 kts | 88° |
| 2026-04-30 00:15 | 40.64481 | 49.76137 | 35110 ft | 500 kts | 88° |
| 2026-04-30 00:15 | 40.64966 | 49.85257 | 35107 ft | 499 kts | 88° |
| 2026-04-30 00:16 | 40.65445 | 49.94395 | 35105 ft | 499 kts | 88° |
| 2026-04-30 00:16 | 40.65917 | 50.03532 | 35105 ft | 499 kts | 88° |
| 2026-04-30 00:17 | 40.66380 | 50.12647 | 35105 ft | 499 kts | 88° |
| 2026-04-30 00:17 | 40.66834 | 50.21710 | 35105 ft | 499 kts | 88° |
| 2026-04-30 00:18 | 40.67284 | 50.30825 | 35103 ft | 499 kts | 88° |
| 2026-04-30 00:18 | 40.67635 | 50.39939 | 35101 ft | 497 kts | 94° |
| 2026-04-30 00:19 | 40.67113 | 50.47502 | 35106 ft | 494 kts | 102° |
| 2026-04-30 00:19 | 40.65516 | 50.56265 | 35109 ft | 491 kts | 108° |
| 2026-04-30 00:20 | 40.63757 | 50.64915 | 35103 ft | 492 kts | 108° |
| 2026-04-30 00:20 | 40.62013 | 50.73617 | 35106 ft | 492 kts | 107° |
| 2026-04-30 00:21 | 40.60287 | 50.82337 | 35105 ft | 492 kts | 107° |
| 2026-04-30 00:21 | 40.58564 | 50.91045 | 35108 ft | 492 kts | 108° |
| 2026-04-30 00:22 | 40.56832 | 50.99747 | 35106 ft | 492 kts | 108° |
| 2026-04-30 00:22 | 40.55091 | 51.08452 | 35105 ft | 492 kts | 108° |
| 2026-04-30 00:23 | 40.53355 | 51.17091 | 35106 ft | 491 kts | 108° |
| 2026-04-30 00:23 | 40.51604 | 51.25770 | 35098 ft | 491 kts | 108° |
| 2026-04-30 00:24 | 40.49836 | 51.34498 | 35105 ft | 491 kts | 108° |
| 2026-04-30 00:24 | 40.48085 | 51.43114 | 35097 ft | 491 kts | 108° |
| 2026-04-30 00:25 | 40.46325 | 51.51774 | 35097 ft | 491 kts | 108° |
| 2026-04-30 00:25 | 40.44704 | 51.60500 | 35091 ft | 492 kts | 107° |
| 2026-04-30 00:26 | 40.43133 | 51.69247 | 35091 ft | 492 kts | 107° |
| 2026-04-30 00:26 | 40.41540 | 51.77987 | 35084 ft | 492 kts | 107° |
| 2026-04-30 00:27 | 40.39925 | 51.86711 | 35091 ft | 492 kts | 107° |
| 2026-04-30 00:27 | 40.38307 | 51.95387 | 35090 ft | 493 kts | 107° |
| 2026-04-30 00:28 | 40.36673 | 52.04121 | 35089 ft | 493 kts | 107° |
| 2026-04-30 00:28 | 40.35035 | 52.12836 | 35084 ft | 493 kts | 108° |
| 2026-04-30 00:29 | 40.33384 | 52.21584 | 35082 ft | 494 kts | 108° |
| 2026-04-30 00:29 | 40.31727 | 52.30324 | 35078 ft | 494 kts | 108° |
| 2026-04-30 00:30 | 40.30062 | 52.39069 | 35078 ft | 494 kts | 108° |
| 2026-04-30 00:30 | 40.28401 | 52.47760 | 35076 ft | 495 kts | 108° |
| 2026-04-30 00:31 | 40.26719 | 52.56525 | 35075 ft | 496 kts | 108° |
| 2026-04-30 00:31 | 40.25034 | 52.65278 | 35075 ft | 496 kts | 108° |
| 2026-04-30 00:32 | 40.23346 | 52.74051 | 35076 ft | 497 kts | 108° |
| 2026-04-30 00:32 | 40.21651 | 52.82832 | 35078 ft | 498 kts | 108° |
| 2026-04-30 00:33 | 40.19958 | 52.91562 | 35073 ft | 498 kts | 109° |
| 2026-04-30 00:33 | 40.18245 | 53.00356 | 35072 ft | 499 kts | 109° |
| 2026-04-30 00:34 | 40.16524 | 53.09147 | 35070 ft | 499 kts | 109° |
| 2026-04-30 00:34 | 40.14791 | 53.17960 | 35070 ft | 500 kts | 109° |
| 2026-04-30 00:35 | 40.13065 | 53.26704 | 35071 ft | 500 kts | 109° |
| 2026-04-30 00:35 | 40.11320 | 53.35508 | 35067 ft | 501 kts | 109° |
| 2026-04-30 00:36 | 40.09564 | 53.44327 | 35068 ft | 501 kts | 109° |
| 2026-04-30 00:36 | 40.07805 | 53.53120 | 35075 ft | 501 kts | 109° |
| 2026-04-30 00:37 | 40.06038 | 53.61920 | 35069 ft | 501 kts | 109° |
| 2026-04-30 00:37 | 40.04265 | 53.70708 | 35072 ft | 501 kts | 110° |
| 2026-04-30 00:38 | 40.02484 | 53.79498 | 35073 ft | 501 kts | 110° |
| 2026-04-30 00:38 | 40.00698 | 53.88278 | 35070 ft | 501 kts | 110° |
| 2026-04-30 00:39 | 39.98916 | 53.97001 | 35074 ft | 500 kts | 110° |
| 2026-04-30 00:39 | 39.97119 | 54.05762 | 35073 ft | 500 kts | 110° |
| 2026-04-30 00:40 | 39.95314 | 54.14522 | 35073 ft | 500 kts | 110° |
| 2026-04-30 00:40 | 39.93506 | 54.23264 | 35081 ft | 500 kts | 110° |
| 2026-04-30 00:41 | 39.91687 | 54.32023 | 35060 ft | 500 kts | 110° |
| 2026-04-30 00:41 | 39.89865 | 54.40762 | 35066 ft | 500 kts | 110° |
| 2026-04-30 00:42 | 39.88031 | 54.49486 | 35066 ft | 499 kts | 110° |
| 2026-04-30 00:42 | 39.86165 | 54.58204 | 35060 ft | 499 kts | 111° |
| 2026-04-30 00:43 | 39.84297 | 54.66908 | 35063 ft | 500 kts | 110° |
| 2026-04-30 00:43 | 39.82436 | 54.75565 | 35064 ft | 500 kts | 111° |
| 2026-04-30 00:44 | 39.80569 | 54.84292 | 35062 ft | 501 kts | 110° |
| 2026-04-30 00:44 | 39.78710 | 54.93023 | 35060 ft | 501 kts | 110° |
| 2026-04-30 00:45 | 39.76839 | 55.01770 | 35059 ft | 502 kts | 110° |
| 2026-04-30 00:45 | 39.74958 | 55.10513 | 35059 ft | 503 kts | 111° |
| 2026-04-30 00:46 | 39.73070 | 55.19259 | 35061 ft | 503 kts | 111° |
| 2026-04-30 00:46 | 39.71172 | 55.28018 | 35063 ft | 503 kts | 111° |
| 2026-04-30 00:47 | 39.68932 | 55.36521 | 35062 ft | 496 kts | 120° |
| 2026-04-30 00:47 | 39.65646 | 55.44304 | 35066 ft | 489 kts | 127° |
| 2026-04-30 00:48 | 39.62096 | 55.51841 | 35061 ft | 489 kts | 127° |
| 2026-04-30 00:48 | 39.58577 | 55.59406 | 35063 ft | 490 kts | 127° |
| 2026-04-30 00:49 | 39.55099 | 55.66935 | 35064 ft | 490 kts | 127° |
| 2026-04-30 00:49 | 39.51593 | 55.74512 | 35064 ft | 490 kts | 127° |
| 2026-04-30 00:50 | 39.48081 | 55.82086 | 35073 ft | 490 kts | 127° |
| 2026-04-30 00:50 | 39.44602 | 55.89700 | 35067 ft | 491 kts | 126° |
| 2026-04-30 00:51 | 39.41132 | 55.97331 | 35065 ft | 492 kts | 126° |
| 2026-04-30 00:51 | 39.37653 | 56.04954 | 35060 ft | 493 kts | 126° |
| 2026-04-30 00:52 | 39.34179 | 56.12534 | 35060 ft | 493 kts | 126° |
| 2026-04-30 00:52 | 39.30671 | 56.20163 | 35063 ft | 494 kts | 126° |
| 2026-04-30 00:53 | 39.27160 | 56.27782 | 35060 ft | 494 kts | 126° |
| 2026-04-30 00:53 | 39.23640 | 56.35403 | 35059 ft | 495 kts | 126° |
| 2026-04-30 00:54 | 39.20101 | 56.43045 | 35052 ft | 496 kts | 126° |
| 2026-04-30 00:54 | 39.16556 | 56.50682 | 35056 ft | 497 kts | 126° |
| 2026-04-30 00:55 | 39.13001 | 56.58322 | 35053 ft | 498 kts | 126° |
| 2026-04-30 00:55 | 39.07647 | 56.69797 | 35056 ft | 500 kts | 126° |
| 2026-04-30 00:56 | 39.04055 | 56.77471 | 35046 ft | 501 kts | 126° |
| 2026-04-30 00:56 | 39.00456 | 56.85142 | 35052 ft | 501 kts | 126° |
| 2026-04-30 00:57 | 38.96841 | 56.92827 | 35041 ft | 502 kts | 126° |
| 2026-04-30 00:57 | 38.93242 | 57.00461 | 35049 ft | 503 kts | 126° |
| 2026-04-30 00:58 | 38.89612 | 57.08144 | 35048 ft | 503 kts | 127° |
| 2026-04-30 00:58 | 38.85973 | 57.15824 | 35035 ft | 503 kts | 127° |
| 2026-04-30 00:59 | 38.82327 | 57.23502 | 35038 ft | 504 kts | 127° |
| 2026-04-30 00:59 | 38.78673 | 57.31178 | 35037 ft | 504 kts | 127° |
| 2026-04-30 01:00 | 38.75012 | 57.38853 | 35036 ft | 505 kts | 127° |
| 2026-04-30 01:00 | 38.71369 | 57.46469 | 35034 ft | 505 kts | 127° |
| 2026-04-30 01:01 | 38.67693 | 57.54138 | 35030 ft | 506 kts | 127° |
| 2026-04-30 01:01 | 38.64005 | 57.61819 | 35035 ft | 506 kts | 127° |
| 2026-04-30 01:02 | 38.60538 | 57.69694 | 35046 ft | 513 kts | 119° |
| 2026-04-30 01:02 | 38.57644 | 57.78056 | 35028 ft | 515 kts | 118° |
| 2026-04-30 01:03 | 38.54767 | 57.86436 | 35033 ft | 515 kts | 118° |
| 2026-04-30 01:03 | 38.51838 | 57.94806 | 35031 ft | 516 kts | 119° |
| 2026-04-30 01:04 | 38.48883 | 58.03168 | 35031 ft | 516 kts | 119° |
| 2026-04-30 01:04 | 38.45923 | 58.11524 | 35027 ft | 517 kts | 119° |
| 2026-04-30 01:05 | 38.43460 | 58.18471 | 35028 ft | 517 kts | 119° |
| 2026-04-30 01:05 | 38.39978 | 58.28174 | 35030 ft | 516 kts | 121° |
| 2026-04-30 01:06 | 38.37018 | 58.34790 | 35030 ft | 512 kts | 126° |
| 2026-04-30 01:06 | 38.33328 | 58.42482 | 35023 ft | 512 kts | 127° |
| 2026-04-30 01:07 | 38.29623 | 58.50226 | 35020 ft | 512 kts | 126° |
| 2026-04-30 01:07 | 38.25936 | 58.58002 | 35023 ft | 513 kts | 126° |
| 2026-04-30 01:08 | 38.22251 | 58.65783 | 35021 ft | 513 kts | 126° |
| 2026-04-30 01:08 | 38.18561 | 58.73554 | 35017 ft | 514 kts | 126° |
| 2026-04-30 01:09 | 38.14857 | 58.81332 | 35019 ft | 514 kts | 126° |
| 2026-04-30 01:09 | 38.11138 | 58.89118 | 35017 ft | 515 kts | 126° |
| 2026-04-30 01:10 | 38.07419 | 58.96887 | 35015 ft | 515 kts | 126° |
| 2026-04-30 01:10 | 38.03690 | 59.04659 | 35016 ft | 516 kts | 126° |
| 2026-04-30 01:11 | 37.99942 | 59.12452 | 35027 ft | 517 kts | 126° |
| 2026-04-30 01:11 | 37.96216 | 59.20181 | 35005 ft | 518 kts | 126° |
| 2026-04-30 01:12 | 37.92455 | 59.27970 | 35007 ft | 519 kts | 127° |
| 2026-04-30 01:12 | 37.88644 | 59.35724 | 35011 ft | 517 kts | 130° |
| 2026-04-30 01:13 | 37.84344 | 59.42995 | 35008 ft | 515 kts | 133° |
| 2026-04-30 01:13 | 37.79962 | 59.50162 | 35006 ft | 515 kts | 133° |
| 2026-04-30 01:14 | 37.75584 | 59.57360 | 35001 ft | 516 kts | 133° |
| 2026-04-30 01:14 | 37.71245 | 59.64536 | 34995 ft | 517 kts | 133° |
| 2026-04-30 01:15 | 37.66872 | 59.71770 | 34995 ft | 518 kts | 133° |
| 2026-04-30 01:15 | 37.62487 | 59.79004 | 34989 ft | 519 kts | 133° |
| 2026-04-30 01:16 | 37.58097 | 59.86229 | 34995 ft | 519 kts | 133° |
| 2026-04-30 01:16 | 37.53691 | 59.93460 | 34994 ft | 520 kts | 133° |
| 2026-04-30 01:17 | 37.49280 | 60.00684 | 34994 ft | 521 kts | 133° |
| 2026-04-30 01:17 | 37.44860 | 60.07908 | 34993 ft | 521 kts | 133° |
| 2026-04-30 01:18 | 37.40460 | 60.15085 | 34984 ft | 522 kts | 133° |
| 2026-04-30 01:18 | 37.36021 | 60.22309 | 34983 ft | 522 kts | 133° |
| 2026-04-30 01:19 | 37.31569 | 60.29539 | 34983 ft | 523 kts | 133° |
| 2026-04-30 01:19 | 37.27108 | 60.36767 | 34983 ft | 523 kts | 133° |
| 2026-04-30 01:20 | 37.22643 | 60.43987 | 34973 ft | 524 kts | 133° |
| 2026-04-30 01:20 | 37.18168 | 60.51205 | 34975 ft | 524 kts | 133° |
| 2026-04-30 01:21 | 37.13674 | 60.58441 | 34970 ft | 525 kts | 133° |
| 2026-04-30 01:21 | 37.09180 | 60.65661 | 34967 ft | 526 kts | 133° |
| 2026-04-30 01:22 | 37.04696 | 60.72850 | 34968 ft | 527 kts | 133° |
| 2026-04-30 01:22 | 37.00177 | 60.80082 | 34967 ft | 527 kts | 133° |
| 2026-04-30 01:23 | 36.95729 | 60.87411 | 34958 ft | 530 kts | 130° |
| 2026-04-30 01:23 | 36.91492 | 60.94974 | 34963 ft | 532 kts | 130° |
| 2026-04-30 01:24 | 36.87263 | 61.02576 | 34962 ft | 533 kts | 130° |
| 2026-04-30 01:24 | 36.83002 | 61.10164 | 34960 ft | 533 kts | 130° |
| 2026-04-30 01:25 | 36.78720 | 61.17738 | 34955 ft | 534 kts | 130° |
| 2026-04-30 01:25 | 36.74455 | 61.25266 | 34954 ft | 535 kts | 130° |
| 2026-04-30 01:26 | 36.70152 | 61.32848 | 34952 ft | 535 kts | 130° |
| 2026-04-30 01:26 | 36.65842 | 61.40431 | 34951 ft | 536 kts | 130° |
| 2026-04-30 01:27 | 36.61522 | 61.48002 | 34953 ft | 536 kts | 130° |
| 2026-04-30 01:27 | 36.57129 | 61.55519 | 34951 ft | 537 kts | 131° |
| 2026-04-30 01:28 | 36.52702 | 61.63010 | 34952 ft | 537 kts | 131° |
| 2026-04-30 01:28 | 36.48296 | 61.70469 | 34953 ft | 538 kts | 131° |
| 2026-04-30 01:29 | 36.43868 | 61.77973 | 34953 ft | 539 kts | 131° |
| 2026-04-30 01:29 | 36.39433 | 61.85478 | 34949 ft | 539 kts | 131° |
| 2026-04-30 01:30 | 36.34983 | 61.92991 | 34944 ft | 540 kts | 131° |
| 2026-04-30 01:30 | 36.30522 | 62.00503 | 34946 ft | 541 kts | 131° |
| 2026-04-30 01:31 | 36.26051 | 62.08015 | 34946 ft | 541 kts | 131° |
| 2026-04-30 01:31 | 36.21568 | 62.15529 | 34944 ft | 542 kts | 131° |
| 2026-04-30 01:32 | 36.17100 | 62.23005 | 34942 ft | 543 kts | 131° |
| 2026-04-30 01:32 | 36.12594 | 62.30526 | 34941 ft | 544 kts | 131° |
| 2026-04-30 01:33 | 36.08073 | 62.38056 | 34937 ft | 545 kts | 131° |
| 2026-04-30 01:33 | 36.03544 | 62.45583 | 34942 ft | 546 kts | 131° |
| 2026-04-30 01:34 | 35.99037 | 62.53058 | 34947 ft | 547 kts | 131° |
| 2026-04-30 01:34 | 35.94480 | 62.60597 | 34946 ft | 548 kts | 131° |
| 2026-04-30 01:35 | 35.89911 | 62.68141 | 34940 ft | 549 kts | 132° |
| 2026-04-30 01:35 | 35.85339 | 62.75674 | 34946 ft | 549 kts | 132° |
| 2026-04-30 01:36 | 35.80750 | 62.83219 | 34959 ft | 550 kts | 132° |
| 2026-04-30 01:36 | 35.76152 | 62.90761 | 34958 ft | 551 kts | 132° |
| 2026-04-30 01:37 | 35.71546 | 62.98301 | 34960 ft | 552 kts | 132° |
| 2026-04-30 01:37 | 35.66952 | 63.05806 | 34959 ft | 553 kts | 132° |
| 2026-04-30 01:38 | 35.62321 | 63.13355 | 34967 ft | 553 kts | 132° |
| 2026-04-30 01:38 | 35.57672 | 63.20917 | 34965 ft | 554 kts | 132° |
| 2026-04-30 01:39 | 35.52985 | 63.28436 | 34961 ft | 555 kts | 133° |
| 2026-04-30 01:39 | 35.48272 | 63.35943 | 34973 ft | 555 kts | 133° |
| 2026-04-30 01:40 | 35.43555 | 63.43459 | 34971 ft | 556 kts | 133° |
| 2026-04-30 01:40 | 35.38829 | 63.50983 | 34979 ft | 557 kts | 133° |
| 2026-04-30 01:41 | 35.34125 | 63.58457 | 34989 ft | 557 kts | 133° |
| 2026-04-30 01:41 | 35.29379 | 63.65981 | 35010 ft | 558 kts | 133° |
| 2026-04-30 01:42 | 35.24630 | 63.73512 | 35008 ft | 560 kts | 133° |
| 2026-04-30 01:42 | 35.19869 | 63.81061 | 35013 ft | 560 kts | 133° |
| 2026-04-30 01:43 | 35.15105 | 63.88599 | 35017 ft | 561 kts | 133° |
| 2026-04-30 01:43 | 35.10326 | 63.96141 | 35023 ft | 561 kts | 133° |
| 2026-04-30 01:44 | 35.05541 | 64.03677 | 35030 ft | 561 kts | 133° |
| 2026-04-30 01:44 | 35.00752 | 64.11204 | 35040 ft | 561 kts | 133° |
| 2026-04-30 01:45 | 34.95980 | 64.18687 | 35038 ft | 562 kts | 133° |
| 2026-04-30 01:45 | 34.91173 | 64.26209 | 35048 ft | 563 kts | 133° |
| 2026-04-30 01:46 | 34.86349 | 64.33741 | 35050 ft | 564 kts | 133° |
| 2026-04-30 01:46 | 34.81512 | 64.41278 | 35061 ft | 564 kts | 133° |
| 2026-04-30 01:47 | 34.76669 | 64.48808 | 35065 ft | 565 kts | 133° |
| 2026-04-30 01:47 | 34.71852 | 64.56282 | 35065 ft | 566 kts | 133° |
| 2026-04-30 01:48 | 34.66956 | 64.63863 | 35083 ft | 567 kts | 133° |
| 2026-04-30 01:48 | 34.62115 | 64.71342 | 35079 ft | 567 kts | 133° |
| 2026-04-30 01:49 | 34.57221 | 64.78890 | 35077 ft | 568 kts | 133° |
| 2026-04-30 01:49 | 34.52325 | 64.86426 | 35083 ft | 568 kts | 133° |
| 2026-04-30 01:50 | 34.47418 | 64.93955 | 35083 ft | 569 kts | 133° |
| 2026-04-30 01:50 | 34.42498 | 65.01472 | 35089 ft | 569 kts | 133° |
| 2026-04-30 01:51 | 34.38405 | 65.07715 | 35084 ft | 570 kts | 133° |
| 2026-04-30 01:51 | 34.32669 | 65.16452 | 35082 ft | 570 kts | 133° |
| 2026-04-30 01:52 | 34.27730 | 65.23958 | 35080 ft | 570 kts | 133° |
| 2026-04-30 01:52 | 34.23588 | 65.30243 | 35078 ft | 571 kts | 133° |
| 2026-04-30 01:53 | 34.18631 | 65.37748 | 35075 ft | 571 kts | 133° |
| 2026-04-30 01:53 | 34.13671 | 65.45242 | 35075 ft | 571 kts | 133° |
| 2026-04-30 01:54 | 34.08735 | 65.52686 | 35064 ft | 572 kts | 133° |
| 2026-04-30 01:54 | 34.03754 | 65.60182 | 35057 ft | 572 kts | 133° |
| 2026-04-30 01:55 | 33.98775 | 65.67665 | 35057 ft | 573 kts | 133° |
| 2026-04-30 01:55 | 33.93774 | 65.75169 | 35038 ft | 574 kts | 133° |
| 2026-04-30 01:56 | 33.88772 | 65.82662 | 35039 ft | 574 kts | 133° |
| 2026-04-30 01:56 | 33.83760 | 65.90150 | 35028 ft | 575 kts | 133° |
| 2026-04-30 01:57 | 33.78740 | 65.97638 | 35015 ft | 575 kts | 133° |
| 2026-04-30 01:57 | 33.73716 | 66.05115 | 35002 ft | 574 kts | 133° |
| 2026-04-30 01:58 | 33.68691 | 66.12576 | 34986 ft | 574 kts | 133° |
| 2026-04-30 01:58 | 33.63666 | 66.20024 | 34987 ft | 574 kts | 133° |
| 2026-04-30 01:59 | 33.56146 | 66.31143 | 34981 ft | 574 kts | 133° |
| 2026-04-30 02:00 | 33.51110 | 66.38570 | 34968 ft | 574 kts | 133° |
| 2026-04-30 02:00 | 33.46065 | 66.45997 | 34969 ft | 574 kts | 133° |
| 2026-04-30 02:01 | 33.41009 | 66.53394 | 34976 ft | 574 kts | 133° |
| 2026-04-30 02:01 | 33.35936 | 66.60787 | 34981 ft | 573 kts | 133° |
| 2026-04-30 02:02 | 33.30875 | 66.68151 | 35008 ft | 573 kts | 133° |
| 2026-04-30 02:02 | 33.25803 | 66.75521 | 34989 ft | 573 kts | 133° |
| 2026-04-30 02:03 | 33.20774 | 66.82816 | 34985 ft | 573 kts | 133° |
| 2026-04-30 02:03 | 33.15704 | 66.90156 | 34991 ft | 572 kts | 133° |
| 2026-04-30 02:04 | 33.10633 | 66.97483 | 34979 ft | 573 kts | 133° |
| 2026-04-30 02:04 | 33.05541 | 67.04825 | 34999 ft | 572 kts | 133° |
| 2026-04-30 02:05 | 33.00462 | 67.12132 | 34958 ft | 572 kts | 133° |
| 2026-04-30 02:05 | 32.95411 | 67.19384 | 34951 ft | 572 kts | 133° |
| 2026-04-30 02:06 | 32.90322 | 67.26679 | 34931 ft | 574 kts | 133° |
| 2026-04-30 02:06 | 32.85212 | 67.33990 | 34938 ft | 575 kts | 133° |
| 2026-04-30 02:07 | 32.80091 | 67.41305 | 34910 ft | 576 kts | 133° |
| 2026-04-30 02:07 | 32.74918 | 67.48593 | 34895 ft | 576 kts | 135° |
| 2026-04-30 02:08 | 32.69609 | 67.55699 | 34902 ft | 575 kts | 136° |
| 2026-04-30 02:08 | 32.64279 | 67.62778 | 34893 ft | 575 kts | 135° |
| 2026-04-30 02:09 | 32.58974 | 67.69883 | 34893 ft | 575 kts | 135° |
| 2026-04-30 02:09 | 32.53667 | 67.77000 | 34878 ft | 574 kts | 135° |
| 2026-04-30 02:10 | 32.48390 | 67.84094 | 34880 ft | 574 kts | 134° |
| 2026-04-30 02:10 | 32.43329 | 67.91333 | 34881 ft | 574 kts | 132° |
| 2026-04-30 02:11 | 32.38311 | 67.98665 | 34882 ft | 573 kts | 132° |
| 2026-04-30 02:11 | 32.33270 | 68.05950 | 34892 ft | 572 kts | 133° |
| 2026-04-30 02:12 | 32.28204 | 68.13191 | 34894 ft | 571 kts | 133° |
| 2026-04-30 02:12 | 32.23126 | 68.20422 | 34898 ft | 571 kts | 133° |
| 2026-04-30 02:13 | 32.18050 | 68.27644 | 34895 ft | 571 kts | 133° |
| 2026-04-30 02:13 | 32.12975 | 68.34857 | 34893 ft | 571 kts | 133° |
| 2026-04-30 02:14 | 32.07894 | 68.42064 | 34901 ft | 571 kts | 133° |
| 2026-04-30 02:14 | 32.02839 | 68.49221 | 34899 ft | 571 kts | 133° |
| 2026-04-30 02:15 | 31.97736 | 68.56431 | 34897 ft | 572 kts | 133° |
| 2026-04-30 02:15 | 31.92635 | 68.63626 | 34889 ft | 573 kts | 133° |
| 2026-04-30 02:16 | 31.87515 | 68.70832 | 34884 ft | 574 kts | 133° |
| 2026-04-30 02:16 | 31.82390 | 68.78033 | 34876 ft | 574 kts | 133° |
| 2026-04-30 02:17 | 31.77253 | 68.85238 | 34870 ft | 574 kts | 133° |
| 2026-04-30 02:17 | 31.72145 | 68.92388 | 34868 ft | 575 kts | 132° |
| 2026-04-30 02:18 | 31.66998 | 68.99582 | 34854 ft | 575 kts | 133° |
| 2026-04-30 02:18 | 31.61955 | 69.06886 | 34858 ft | 575 kts | 130° |
| 2026-04-30 02:19 | 31.57031 | 69.14303 | 34851 ft | 576 kts | 130° |
| 2026-04-30 02:19 | 31.52081 | 69.21697 | 34847 ft | 577 kts | 130° |
| 2026-04-30 02:20 | 31.47089 | 69.29072 | 34840 ft | 577 kts | 130° |
| 2026-04-30 02:20 | 31.42128 | 69.36386 | 34828 ft | 577 kts | 130° |
| 2026-04-30 02:21 | 31.36706 | 69.43195 | 34818 ft | 566 kts | 148° |
| 2026-04-30 02:21 | 31.33424 | 69.45646 | 34834 ft | 557 kts | 159° |
| 2026-04-30 02:21 | 31.29916 | 69.47476 | 34847 ft | 547 kts | 168° |
| 2026-04-30 02:21 | 31.26282 | 69.48572 | 34836 ft | 534 kts | 177° |
| 2026-04-30 02:22 | 31.22629 | 69.49404 | 34828 ft | 535 kts | 177° |
| 2026-04-30 02:22 | 31.15297 | 69.51079 | 34831 ft | 537 kts | 176° |
| 2026-04-30 02:23 | 31.08014 | 69.52838 | 34830 ft | 538 kts | 176° |
| 2026-04-30 02:23 | 31.00683 | 69.54662 | 34829 ft | 539 kts | 176° |
| 2026-04-30 02:24 | 30.93343 | 69.56493 | 34824 ft | 540 kts | 176° |
| 2026-04-30 02:24 | 30.85996 | 69.58315 | 34817 ft | 540 kts | 176° |
| 2026-04-30 02:25 | 30.78648 | 69.60130 | 34820 ft | 539 kts | 176° |
| 2026-04-30 02:25 | 30.71314 | 69.61939 | 34816 ft | 539 kts | 176° |
| 2026-04-30 02:26 | 30.63989 | 69.63743 | 34805 ft | 538 kts | 176° |
| 2026-04-30 02:26 | 30.56667 | 69.65544 | 34807 ft | 537 kts | 176° |
| 2026-04-30 02:27 | 30.49367 | 69.67336 | 34811 ft | 536 kts | 176° |
| 2026-04-30 02:27 | 30.42078 | 69.69123 | 34810 ft | 535 kts | 176° |
| 2026-04-30 02:28 | 30.34791 | 69.70907 | 34807 ft | 534 kts | 176° |
| 2026-04-30 02:28 | 30.27525 | 69.72683 | 34802 ft | 533 kts | 176° |
| 2026-04-30 02:29 | 30.20277 | 69.74551 | 34801 ft | 535 kts | 173° |
| 2026-04-30 02:29 | 30.13049 | 69.76695 | 34799 ft | 536 kts | 173° |
| 2026-04-30 02:30 | 30.05883 | 69.78855 | 34793 ft | 536 kts | 173° |
| 2026-04-30 02:30 | 29.98658 | 69.80985 | 34793 ft | 535 kts | 173° |
| 2026-04-30 02:31 | 29.91424 | 69.83085 | 34787 ft | 536 kts | 173° |
| 2026-04-30 02:31 | 29.84169 | 69.85184 | 34776 ft | 537 kts | 173° |
| 2026-04-30 02:32 | 29.76958 | 69.87269 | 34775 ft | 539 kts | 173° |
| 2026-04-30 02:32 | 29.73306 | 69.88324 | 34909 ft | 542 kts | 173° |
| 2026-04-30 02:32 | 29.69639 | 69.89383 | 35208 ft | 541 kts | 173° |
| 2026-04-30 02:32 | 29.65994 | 69.90438 | 35551 ft | 538 kts | 173° |
| 2026-04-30 02:33 | 29.62367 | 69.91488 | 35913 ft | 536 kts | 173° |
| 2026-04-30 02:33 | 29.58756 | 69.92532 | 36214 ft | 534 kts | 173° |
| 2026-04-30 02:33 | 29.55161 | 69.93565 | 36414 ft | 533 kts | 173° |
| 2026-04-30 02:33 | 29.51551 | 69.94605 | 36613 ft | 533 kts | 173° |
| 2026-04-30 02:34 | 29.47952 | 69.95642 | 36694 ft | 535 kts | 173° |
| 2026-04-30 02:34 | 29.40761 | 69.97709 | 36719 ft | 536 kts | 173° |
| 2026-04-30 02:35 | 29.33506 | 69.99795 | 36727 ft | 533 kts | 173° |
| 2026-04-30 02:35 | 29.26372 | 70.01841 | 36696 ft | 530 kts | 173° |
| 2026-04-30 02:36 | 29.19225 | 70.03886 | 36703 ft | 529 kts | 172° |
| 2026-04-30 02:36 | 29.12092 | 70.05923 | 36704 ft | 528 kts | 172° |
| 2026-04-30 02:37 | 29.04962 | 70.07957 | 36701 ft | 528 kts | 172° |
| 2026-04-30 02:37 | 28.97815 | 70.09994 | 36705 ft | 529 kts | 172° |
| 2026-04-30 02:38 | 28.90664 | 70.12029 | 36697 ft | 529 kts | 172° |
| 2026-04-30 02:38 | 28.84721 | 70.13719 | 36696 ft | 530 kts | 172° |
| 2026-04-30 02:39 | 28.77566 | 70.15750 | 36694 ft | 530 kts | 172° |
| 2026-04-30 02:39 | 28.70407 | 70.17780 | 36691 ft | 530 kts | 172° |
| 2026-04-30 02:40 | 28.63239 | 70.19810 | 36688 ft | 530 kts | 172° |
| 2026-04-30 02:40 | 28.56068 | 70.21837 | 36685 ft | 530 kts | 172° |
| 2026-04-30 02:41 | 28.48952 | 70.23847 | 36688 ft | 531 kts | 172° |
| 2026-04-30 02:41 | 28.41789 | 70.25934 | 36673 ft | 533 kts | 165° |
| 2026-04-30 02:41 | 28.38441 | 70.27826 | 36683 ft | 544 kts | 148° |
| 2026-04-30 02:42 | 28.35575 | 70.30671 | 36690 ft | 549 kts | 132° |
| 2026-04-30 02:42 | 28.33417 | 70.34250 | 36680 ft | 550 kts | 115° |
| 2026-04-30 02:42 | 28.31797 | 70.38176 | 36720 ft | 550 kts | 114° |
| 2026-04-30 02:43 | 28.28626 | 70.46068 | 36698 ft | 555 kts | 114° |
| 2026-04-30 02:43 | 28.25320 | 70.54029 | 36688 ft | 559 kts | 115° |
| 2026-04-30 02:44 | 28.21917 | 70.61989 | 36682 ft | 562 kts | 115° |
| 2026-04-30 02:44 | 28.18481 | 70.69960 | 36682 ft | 563 kts | 115° |
| 2026-04-30 02:45 | 28.15040 | 70.77949 | 36676 ft | 562 kts | 115° |
| 2026-04-30 02:45 | 28.11636 | 70.85857 | 36677 ft | 561 kts | 115° |
| 2026-04-30 02:46 | 28.08212 | 70.93796 | 36672 ft | 559 kts | 115° |
| 2026-04-30 02:46 | 28.04797 | 71.01697 | 36673 ft | 557 kts | 115° |
| 2026-04-30 02:47 | 28.01383 | 71.09580 | 36670 ft | 556 kts | 115° |
| 2026-04-30 02:47 | 27.97999 | 71.17377 | 36675 ft | 555 kts | 115° |
| 2026-04-30 02:48 | 27.94590 | 71.25220 | 36673 ft | 555 kts | 115° |
| 2026-04-30 02:48 | 27.91178 | 71.33053 | 36674 ft | 555 kts | 115° |
| 2026-04-30 02:49 | 27.87753 | 71.40904 | 36670 ft | 556 kts | 115° |
| 2026-04-30 02:49 | 27.84261 | 71.48715 | 36676 ft | 557 kts | 117° |
| 2026-04-30 02:50 | 27.80663 | 71.56473 | 36673 ft | 557 kts | 117° |
| 2026-04-30 02:50 | 27.77077 | 71.64182 | 36668 ft | 558 kts | 117° |
| 2026-04-30 02:51 | 27.73480 | 71.71954 | 36670 ft | 558 kts | 117° |
| 2026-04-30 02:51 | 27.69889 | 71.79722 | 36674 ft | 558 kts | 117° |
| 2026-04-30 02:52 | 27.66294 | 71.87485 | 36676 ft | 558 kts | 117° |
| 2026-04-30 02:52 | 27.62687 | 71.95258 | 36677 ft | 558 kts | 117° |
| 2026-04-30 02:53 | 27.59103 | 72.02962 | 36675 ft | 558 kts | 117° |
| 2026-04-30 02:53 | 27.55490 | 72.10717 | 36676 ft | 557 kts | 117° |
| 2026-04-30 02:54 | 27.51874 | 72.18461 | 36677 ft | 557 kts | 117° |
| 2026-04-30 02:54 | 27.48260 | 72.26189 | 36683 ft | 557 kts | 117° |
| 2026-04-30 02:55 | 27.44671 | 72.33848 | 36683 ft | 557 kts | 117° |
| 2026-04-30 02:55 | 27.41054 | 72.41554 | 36688 ft | 557 kts | 117° |
| 2026-04-30 02:56 | 27.37427 | 72.49267 | 36683 ft | 557 kts | 117° |
| 2026-04-30 02:56 | 27.33798 | 72.56969 | 36692 ft | 557 kts | 117° |
| 2026-04-30 02:57 | 27.30158 | 72.64681 | 36693 ft | 558 kts | 117° |
| 2026-04-30 02:57 | 27.26515 | 72.72386 | 36698 ft | 558 kts | 117° |
| 2026-04-30 02:58 | 27.22860 | 72.80102 | 36698 ft | 559 kts | 117° |
| 2026-04-30 02:58 | 27.19224 | 72.87765 | 36700 ft | 559 kts | 117° |
| 2026-04-30 02:59 | 27.15558 | 72.95475 | 36701 ft | 559 kts | 117° |
| 2026-04-30 02:59 | 27.11892 | 73.03174 | 36709 ft | 559 kts | 117° |
| 2026-04-30 03:00 | 27.08217 | 73.10878 | 36705 ft | 559 kts | 117° |
| 2026-04-30 03:00 | 27.04541 | 73.18568 | 36713 ft | 559 kts | 117° |
| 2026-04-30 03:01 | 27.00858 | 73.26262 | 36714 ft | 559 kts | 117° |
| 2026-04-30 03:01 | 26.97176 | 73.33941 | 36717 ft | 559 kts | 117° |
| 2026-04-30 03:02 | 26.93487 | 73.41578 | 36724 ft | 559 kts | 117° |
| 2026-04-30 03:02 | 26.89743 | 73.49214 | 36729 ft | 559 kts | 117° |
| 2026-04-30 03:03 | 26.85987 | 73.56854 | 36727 ft | 559 kts | 117° |
| 2026-04-30 03:03 | 26.80364 | 73.68301 | 36733 ft | 559 kts | 117° |
| 2026-04-30 03:04 | 26.76612 | 73.75930 | 36736 ft | 559 kts | 117° |
| 2026-04-30 03:04 | 26.72861 | 73.83540 | 36742 ft | 558 kts | 117° |
| 2026-04-30 03:05 | 26.69100 | 73.91158 | 36745 ft | 558 kts | 117° |
| 2026-04-30 03:05 | 26.65366 | 73.98708 | 36749 ft | 558 kts | 117° |
| 2026-04-30 03:06 | 26.61608 | 74.06293 | 36753 ft | 558 kts | 117° |
| 2026-04-30 03:06 | 26.57848 | 74.13872 | 36756 ft | 558 kts | 117° |
| 2026-04-30 03:07 | 26.54084 | 74.21456 | 36758 ft | 558 kts | 117° |
| 2026-04-30 03:07 | 26.50354 | 74.29058 | 36767 ft | 558 kts | 117° |
| 2026-04-30 03:08 | 26.46638 | 74.36655 | 36769 ft | 558 kts | 117° |
| 2026-04-30 03:08 | 26.42906 | 74.44256 | 36772 ft | 558 kts | 117° |
| 2026-04-30 03:09 | 26.39190 | 74.51803 | 36773 ft | 558 kts | 117° |
| 2026-04-30 03:09 | 26.35447 | 74.59389 | 36778 ft | 558 kts | 117° |
| 2026-04-30 03:10 | 26.31698 | 74.66974 | 36779 ft | 559 kts | 117° |
| 2026-04-30 03:10 | 26.27937 | 74.74573 | 36779 ft | 559 kts | 117° |
| 2026-04-30 03:11 | 26.24190 | 74.82131 | 36779 ft | 559 kts | 117° |
| 2026-04-30 03:11 | 26.20422 | 74.89722 | 36780 ft | 560 kts | 117° |
| 2026-04-30 03:12 | 26.16594 | 74.97270 | 36768 ft | 561 kts | 121° |
| 2026-04-30 03:12 | 26.12253 | 75.04491 | 36781 ft | 561 kts | 123° |
| 2026-04-30 03:13 | 26.07832 | 75.11640 | 36780 ft | 561 kts | 123° |
| 2026-04-30 03:13 | 26.03442 | 75.18816 | 36781 ft | 560 kts | 122° |
| 2026-04-30 03:14 | 25.99079 | 75.25994 | 36780 ft | 560 kts | 122° |
| 2026-04-30 03:14 | 25.94739 | 75.33124 | 36779 ft | 560 kts | 122° |
| 2026-04-30 03:15 | 25.90366 | 75.40290 | 36784 ft | 560 kts | 122° |
| 2026-04-30 03:15 | 25.85947 | 75.47406 | 36782 ft | 560 kts | 124° |
| 2026-04-30 03:16 | 25.81251 | 75.54306 | 36784 ft | 560 kts | 126° |
| 2026-04-30 03:16 | 25.76493 | 75.61141 | 36789 ft | 559 kts | 126° |
| 2026-04-30 03:17 | 25.71774 | 75.68006 | 36788 ft | 559 kts | 126° |
| 2026-04-30 03:17 | 25.67096 | 75.74875 | 36787 ft | 558 kts | 126° |
| 2026-04-30 03:18 | 25.62421 | 75.81741 | 36786 ft | 557 kts | 126° |
| 2026-04-30 03:18 | 25.57752 | 75.88579 | 36785 ft | 556 kts | 126° |
| 2026-04-30 03:19 | 25.53106 | 75.95368 | 36789 ft | 556 kts | 126° |
| 2026-04-30 03:19 | 25.48431 | 76.02187 | 36785 ft | 555 kts | 126° |
| 2026-04-30 03:20 | 25.43758 | 76.08996 | 36788 ft | 555 kts | 126° |
| 2026-04-30 03:20 | 25.39090 | 76.15787 | 36786 ft | 554 kts | 126° |
| 2026-04-30 03:21 | 25.34418 | 76.22576 | 36791 ft | 554 kts | 126° |
| 2026-04-30 03:21 | 25.29771 | 76.29317 | 36796 ft | 554 kts | 126° |
| 2026-04-30 03:22 | 25.25103 | 76.36079 | 36793 ft | 553 kts | 126° |
| 2026-04-30 03:22 | 25.20434 | 76.42833 | 36795 ft | 553 kts | 126° |
| 2026-04-30 03:23 | 25.15759 | 76.49588 | 36794 ft | 553 kts | 126° |
| 2026-04-30 03:23 | 25.11088 | 76.56326 | 36810 ft | 553 kts | 126° |
| 2026-04-30 03:24 | 25.06407 | 76.63072 | 36807 ft | 552 kts | 126° |
| 2026-04-30 03:24 | 25.01383 | 76.69460 | 36816 ft | 552 kts | 140° |
| 2026-04-30 03:25 | 24.94979 | 76.73976 | 36810 ft | 549 kts | 158° |
| 2026-04-30 03:25 | 24.87775 | 76.76651 | 36814 ft | 546 kts | 166° |
| 2026-04-30 03:26 | 24.80507 | 76.79101 | 36808 ft | 547 kts | 166° |
| 2026-04-30 03:26 | 24.73243 | 76.81655 | 36816 ft | 548 kts | 165° |
| 2026-04-30 03:27 | 24.65994 | 76.84265 | 36818 ft | 548 kts | 165° |
| 2026-04-30 03:27 | 24.58737 | 76.86872 | 36821 ft | 548 kts | 165° |
| 2026-04-30 03:28 | 24.52706 | 76.89029 | 36821 ft | 548 kts | 165° |
| 2026-04-30 03:28 | 24.45450 | 76.91600 | 36821 ft | 547 kts | 167° |
| 2026-04-30 03:29 | 24.38039 | 76.93253 | 36829 ft | 540 kts | 178° |
| 2026-04-30 03:29 | 24.30573 | 76.93675 | 36829 ft | 536 kts | 183° |
| 2026-04-30 03:30 | 24.23117 | 76.93916 | 36829 ft | 535 kts | 183° |
| 2026-04-30 03:30 | 24.15704 | 76.94198 | 36834 ft | 535 kts | 182° |
| 2026-04-30 03:31 | 24.08253 | 76.94518 | 36824 ft | 535 kts | 182° |
| 2026-04-30 03:31 | 24.00807 | 76.94844 | 36835 ft | 535 kts | 182° |
| 2026-04-30 03:32 | 23.93373 | 76.95167 | 36839 ft | 535 kts | 182° |
| 2026-04-30 03:32 | 23.85933 | 76.95487 | 36838 ft | 535 kts | 182° |
| 2026-04-30 03:33 | 23.78501 | 76.95806 | 36839 ft | 535 kts | 182° |
| 2026-04-30 03:33 | 23.71098 | 76.96122 | 36842 ft | 535 kts | 182° |
| 2026-04-30 03:34 | 23.63653 | 76.96441 | 36843 ft | 535 kts | 182° |
| 2026-04-30 03:34 | 23.56214 | 76.96760 | 36839 ft | 535 kts | 182° |
| 2026-04-30 03:35 | 23.48772 | 76.97078 | 36848 ft | 535 kts | 182° |
| 2026-04-30 03:35 | 23.41319 | 76.97396 | 36846 ft | 536 kts | 182° |
| 2026-04-30 03:36 | 23.33863 | 76.97714 | 36846 ft | 536 kts | 182° |
| 2026-04-30 03:36 | 23.26408 | 76.98032 | 36850 ft | 535 kts | 182° |
| 2026-04-30 03:37 | 23.18965 | 76.98349 | 36853 ft | 535 kts | 181° |
| 2026-04-30 03:37 | 23.11580 | 76.99341 | 36851 ft | 541 kts | 170° |
| 2026-04-30 03:38 | 23.04260 | 77.01278 | 36857 ft | 541 kts | 168° |
| 2026-04-30 03:38 | 22.96945 | 77.03245 | 36860 ft | 541 kts | 169° |
| 2026-04-30 03:39 | 22.89631 | 77.05152 | 36858 ft | 540 kts | 169° |
| 2026-04-30 03:39 | 22.82348 | 77.07019 | 36856 ft | 540 kts | 169° |
| 2026-04-30 03:40 | 22.75038 | 77.08891 | 36862 ft | 540 kts | 169° |
| 2026-04-30 03:40 | 22.67723 | 77.10767 | 36861 ft | 540 kts | 169° |
| 2026-04-30 03:41 | 22.60410 | 77.12642 | 36858 ft | 539 kts | 169° |
| 2026-04-30 03:41 | 22.53109 | 77.14511 | 36865 ft | 539 kts | 169° |
| 2026-04-30 03:42 | 22.45800 | 77.16381 | 36862 ft | 539 kts | 169° |
| 2026-04-30 03:42 | 22.38502 | 77.18246 | 36871 ft | 539 kts | 169° |
| 2026-04-30 03:43 | 22.31241 | 77.20110 | 36875 ft | 539 kts | 169° |
| 2026-04-30 03:43 | 22.23944 | 77.21995 | 36878 ft | 539 kts | 169° |
| 2026-04-30 03:44 | 22.16658 | 77.23875 | 36882 ft | 538 kts | 169° |
| 2026-04-30 03:44 | 22.09370 | 77.25750 | 36882 ft | 538 kts | 169° |
| 2026-04-30 03:45 | 22.02076 | 77.27625 | 36891 ft | 538 kts | 169° |
| 2026-04-30 03:45 | 21.94789 | 77.29496 | 36890 ft | 539 kts | 169° |
| 2026-04-30 03:46 | 21.87498 | 77.31366 | 36895 ft | 539 kts | 169° |
| 2026-04-30 03:46 | 21.80202 | 77.33236 | 36896 ft | 539 kts | 169° |
| 2026-04-30 03:47 | 21.72948 | 77.35093 | 36897 ft | 539 kts | 169° |
| 2026-04-30 03:47 | 21.65645 | 77.36961 | 36899 ft | 539 kts | 169° |
| 2026-04-30 03:48 | 21.58347 | 77.38812 | 36897 ft | 539 kts | 169° |
| 2026-04-30 03:48 | 21.51018 | 77.40542 | 36900 ft | 539 kts | 170° |
| 2026-04-30 03:49 | 21.43694 | 77.42234 | 36893 ft | 538 kts | 170° |
| 2026-04-30 03:49 | 21.36380 | 77.43940 | 36887 ft | 538 kts | 170° |
| 2026-04-30 03:50 | 21.29069 | 77.45657 | 36882 ft | 537 kts | 170° |
| 2026-04-30 03:50 | 21.21775 | 77.47370 | 36876 ft | 536 kts | 170° |
| 2026-04-30 03:51 | 21.14520 | 77.49070 | 36890 ft | 536 kts | 170° |
| 2026-04-30 03:51 | 21.07239 | 77.50774 | 36878 ft | 535 kts | 170° |
| 2026-04-30 03:52 | 20.99948 | 77.52479 | 36866 ft | 535 kts | 170° |
| 2026-04-30 03:52 | 20.92681 | 77.54177 | 36869 ft | 534 kts | 170° |
| 2026-04-30 03:53 | 20.85415 | 77.55873 | 36872 ft | 534 kts | 169° |
| 2026-04-30 03:53 | 20.78208 | 77.57565 | 36872 ft | 533 kts | 169° |
| 2026-04-30 03:54 | 20.70922 | 77.59285 | 36878 ft | 533 kts | 169° |
| 2026-04-30 03:54 | 20.63730 | 77.60981 | 36871 ft | 532 kts | 169° |
| 2026-04-30 03:55 | 20.56504 | 77.62682 | 36870 ft | 532 kts | 169° |
| 2026-04-30 03:55 | 20.49238 | 77.64390 | 36874 ft | 531 kts | 169° |
| 2026-04-30 03:56 | 20.42076 | 77.66071 | 36874 ft | 530 kts | 169° |
| 2026-04-30 03:56 | 20.34867 | 77.67762 | 36874 ft | 530 kts | 169° |
| 2026-04-30 03:57 | 20.27667 | 77.69449 | 36875 ft | 529 kts | 169° |
| 2026-04-30 03:57 | 20.20482 | 77.71131 | 36872 ft | 528 kts | 169° |
| 2026-04-30 03:58 | 20.13304 | 77.72810 | 36879 ft | 528 kts | 169° |
| 2026-04-30 03:58 | 20.06126 | 77.74488 | 36878 ft | 527 kts | 169° |
| 2026-04-30 03:59 | 19.98961 | 77.76161 | 36875 ft | 527 kts | 169° |
| 2026-04-30 03:59 | 19.91833 | 77.77823 | 36882 ft | 527 kts | 169° |
| 2026-04-30 04:00 | 19.84676 | 77.79491 | 36884 ft | 527 kts | 169° |
| 2026-04-30 04:00 | 19.77513 | 77.81159 | 36886 ft | 526 kts | 169° |
| 2026-04-30 04:01 | 19.70351 | 77.82825 | 36966 ft | 526 kts | 170° |
| 2026-04-30 04:01 | 19.63290 | 77.84469 | 36875 ft | 513 kts | 170° |
| 2026-04-30 04:02 | 19.56370 | 77.86076 | 36887 ft | 508 kts | 170° |
| 2026-04-30 04:02 | 19.49467 | 77.87675 | 36893 ft | 508 kts | 170° |
| 2026-04-30 04:03 | 19.42539 | 77.89280 | 36898 ft | 509 kts | 170° |
| 2026-04-30 04:03 | 19.35595 | 77.90889 | 36897 ft | 511 kts | 170° |
| 2026-04-30 04:04 | 19.28634 | 77.92500 | 36898 ft | 513 kts | 170° |
| 2026-04-30 04:04 | 19.21657 | 77.94124 | 36898 ft | 514 kts | 170° |
| 2026-04-30 04:05 | 19.14700 | 77.95746 | 36905 ft | 514 kts | 170° |
| 2026-04-30 04:05 | 19.07708 | 77.97373 | 36896 ft | 515 kts | 170° |
| 2026-04-30 04:06 | 19.00698 | 77.98729 | 36896 ft | 508 kts | 181° |
| 2026-04-30 04:06 | 18.97203 | 77.98557 | 36914 ft | 501 kts | 192° |
| 2026-04-30 04:06 | 18.93810 | 77.97810 | 36901 ft | 496 kts | 201° |
| 2026-04-30 04:07 | 18.87549 | 77.94961 | 36910 ft | 489 kts | 210° |
| 2026-04-30 04:08 | 18.78288 | 77.90335 | 36871 ft | 496 kts | 209° |
| 2026-04-30 04:08 | 18.71962 | 77.87259 | 36912 ft | 502 kts | 208° |
| 2026-04-30 04:09 | 18.65712 | 77.84259 | 36902 ft | 486 kts | 208° |
| 2026-04-30 04:09 | 18.59568 | 77.81307 | 36913 ft | 484 kts | 208° |
| 2026-04-30 04:10 | 18.53474 | 77.78373 | 36930 ft | 485 kts | 208° |
| 2026-04-30 04:10 | 18.47332 | 77.75417 | 36928 ft | 485 kts | 208° |
| 2026-04-30 04:11 | 18.41199 | 77.72470 | 36926 ft | 485 kts | 208° |
| 2026-04-30 04:11 | 18.35050 | 77.69518 | 36927 ft | 485 kts | 208° |
| 2026-04-30 04:12 | 18.28875 | 77.66636 | 36911 ft | 486 kts | 200° |
| 2026-04-30 04:12 | 18.25543 | 77.66003 | 36926 ft | 492 kts | 182° |
| 2026-04-30 04:12 | 18.22139 | 77.66429 | 36923 ft | 496 kts | 164° |
| 2026-04-30 04:12 | 18.18980 | 77.67870 | 36943 ft | 496 kts | 147° |
| 2026-04-30 04:13 | 18.16318 | 77.70165 | 36926 ft | 495 kts | 130° |
| 2026-04-30 04:13 | 18.11446 | 77.75038 | 36934 ft | 490 kts | 155° |
| 2026-04-30 04:13 | 18.08217 | 77.76108 | 36931 ft | 487 kts | 176° |
| 2026-04-30 04:14 | 18.04874 | 77.75993 | 36931 ft | 480 kts | 197° |
| 2026-04-30 04:14 | 18.01798 | 77.74727 | 36946 ft | 471 kts | 217° |
| 2026-04-30 04:14 | 17.99378 | 77.72496 | 36951 ft | 460 kts | 238° |
| 2026-04-30 04:15 | 17.96878 | 77.67590 | 36959 ft | 456 kts | 251° |
| 2026-04-30 04:15 | 17.94289 | 77.61504 | 36944 ft | 463 kts | 246° |
| 2026-04-30 04:16 | 17.90500 | 77.56011 | 36939 ft | 470 kts | 224° |
| 2026-04-30 04:16 | 17.87712 | 77.54206 | 36947 ft | 476 kts | 203° |
| 2026-04-30 04:16 | 17.84461 | 77.53473 | 36973 ft | 483 kts | 186° |
| 2026-04-30 04:17 | 17.77705 | 77.53282 | 36952 ft | 486 kts | 187° |
| 2026-04-30 04:17 | 17.74398 | 77.52662 | 36944 ft | 480 kts | 204° |
| 2026-04-30 04:17 | 17.71530 | 77.51004 | 36973 ft | 468 kts | 225° |
| 2026-04-30 04:17 | 17.69433 | 77.48476 | 36971 ft | 455 kts | 245° |
| 2026-04-30 04:18 | 17.68349 | 77.45421 | 36976 ft | 443 kts | 266° |
| 2026-04-30 04:18 | 17.68378 | 77.42283 | 36967 ft | 434 kts | 286° |
| 2026-04-30 04:18 | 17.69345 | 77.39314 | 36985 ft | 430 kts | 296° |
| 2026-04-30 04:19 | 17.71966 | 77.33648 | 36953 ft | 433 kts | 303° |
| 2026-04-30 04:19 | 17.75541 | 77.28570 | 36971 ft | 434 kts | 310° |
| 2026-04-30 04:20 | 17.79417 | 77.23701 | 36972 ft | 435 kts | 310° |
| 2026-04-30 04:20 | 17.83249 | 77.18783 | 36973 ft | 434 kts | 310° |
| 2026-04-30 04:21 | 17.86993 | 77.13858 | 36954 ft | 433 kts | 309° |
| 2026-04-30 04:21 | 17.90716 | 77.08920 | 36957 ft | 430 kts | 309° |
| 2026-04-30 04:22 | 17.94422 | 77.04001 | 36955 ft | 428 kts | 309° |
| 2026-04-30 04:22 | 17.98111 | 76.99103 | 36953 ft | 426 kts | 309° |
| 2026-04-30 04:23 | 18.01760 | 76.94258 | 36936 ft | 425 kts | 309° |
| 2026-04-30 04:23 | 18.05420 | 76.89394 | 36950 ft | 424 kts | 309° |
| 2026-04-30 04:24 | 18.09079 | 76.84527 | 36934 ft | 424 kts | 309° |
| 2026-04-30 04:24 | 18.12743 | 76.79651 | 36932 ft | 425 kts | 309° |
| 2026-04-30 04:25 | 18.16615 | 76.74981 | 36926 ft | 422 kts | 324° |
| 2026-04-30 04:25 | 18.19163 | 76.73473 | 36931 ft | 423 kts | 339° |
| 2026-04-30 04:25 | 18.22009 | 76.72660 | 36951 ft | 426 kts | 350° |
| 2026-04-30 04:26 | 18.27968 | 76.72789 | 36938 ft | 435 kts | 10° |
| 2026-04-30 04:26 | 18.30862 | 76.73788 | 36929 ft | 442 kts | 22° |
| 2026-04-30 04:26 | 18.33474 | 76.75539 | 36925 ft | 451 kts | 38° |
| 2026-04-30 04:26 | 18.35557 | 76.78037 | 36934 ft | 460 kts | 54° |
| 2026-04-30 04:27 | 18.36907 | 76.81078 | 36941 ft | 469 kts | 70° |
| 2026-04-30 04:27 | 18.37472 | 76.84483 | 36934 ft | 478 kts | 85° |
| 2026-04-30 04:27 | 18.37390 | 76.86915 | 36929 ft | 483 kts | 95° |
| 2026-04-30 04:27 | 18.36687 | 76.90364 | 36942 ft | 488 kts | 106° |
| 2026-04-30 04:28 | 18.35255 | 76.93611 | 36915 ft | 493 kts | 124° |
| 2026-04-30 04:28 | 18.30966 | 76.99268 | 36931 ft | 494 kts | 129° |
| 2026-04-30 04:29 | 18.26586 | 77.04821 | 36942 ft | 496 kts | 128° |
| 2026-04-30 04:29 | 18.22230 | 77.10506 | 36937 ft | 497 kts | 127° |
| 2026-04-30 04:30 | 18.17962 | 77.16172 | 36936 ft | 497 kts | 127° |
| 2026-04-30 04:30 | 18.13662 | 77.21889 | 36936 ft | 496 kts | 127° |
| 2026-04-30 04:31 | 18.09395 | 77.27545 | 36936 ft | 494 kts | 128° |
| 2026-04-30 04:31 | 18.05139 | 77.33177 | 36938 ft | 492 kts | 128° |
| 2026-04-30 04:32 | 18.00868 | 77.38826 | 36957 ft | 491 kts | 128° |
| 2026-04-30 04:32 | 17.96618 | 77.44443 | 36955 ft | 490 kts | 128° |
| 2026-04-30 04:33 | 17.92383 | 77.50035 | 36954 ft | 490 kts | 128° |
| 2026-04-30 04:33 | 17.90052 | 77.52571 | 36931 ft | 487 kts | 144° |
| 2026-04-30 04:33 | 17.87132 | 77.54345 | 36658 ft | 481 kts | 162° |
| 2026-04-30 04:33 | 17.83915 | 77.55141 | 36174 ft | 472 kts | 179° |
| 2026-04-30 04:34 | 17.80702 | 77.54977 | 35649 ft | 463 kts | 195° |
| 2026-04-30 04:34 | 17.77654 | 77.53977 | 35178 ft | 452 kts | 210° |
| 2026-04-30 04:34 | 17.74967 | 77.52325 | 34786 ft | 441 kts | 221° |
| 2026-04-30 04:34 | 17.72728 | 77.50201 | 34428 ft | 428 kts | 234° |
| 2026-04-30 04:35 | 17.71102 | 77.47678 | 34058 ft | 416 kts | 249° |
| 2026-04-30 04:35 | 17.70151 | 77.44865 | 33645 ft | 405 kts | 262° |
| 2026-04-30 04:35 | 17.69871 | 77.41957 | 33221 ft | 396 kts | 274° |
| 2026-04-30 04:35 | 17.70176 | 77.39119 | 32795 ft | 390 kts | 283° |
| 2026-04-30 04:36 | 17.70869 | 77.36373 | 32395 ft | 386 kts | 290° |
| 2026-04-30 04:36 | 17.71986 | 77.33869 | 31950 ft | 383 kts | 305° |
| 2026-04-30 04:36 | 17.73624 | 77.31704 | 31469 ft | 380 kts | 308° |
| 2026-04-30 04:36 | 17.75309 | 77.29540 | 31026 ft | 379 kts | 307° |
| 2026-04-30 04:37 | 17.77120 | 77.27600 | 30555 ft | 378 kts | 322° |
| 2026-04-30 04:37 | 17.79448 | 77.26261 | 30099 ft | 383 kts | 334° |
| 2026-04-30 04:37 | 17.82000 | 77.25409 | 29650 ft | 385 kts | 343° |
| 2026-04-30 04:37 | 17.84626 | 77.24977 | 29221 ft | 386 kts | 352° |
| 2026-04-30 04:38 | 17.87327 | 77.25047 | 28832 ft | 388 kts | 4° |
| 2026-04-30 04:38 | 17.89924 | 77.25720 | 28418 ft | 391 kts | 17° |
| 2026-04-30 04:38 | 17.92350 | 77.27034 | 28001 ft | 395 kts | 31° |
| 2026-04-30 04:38 | 17.94443 | 77.28925 | 27583 ft | 398 kts | 45° |
| 2026-04-30 04:39 | 17.96077 | 77.31250 | 27226 ft | 399 kts | 58° |
| 2026-04-30 04:39 | 17.97195 | 77.33914 | 26947 ft | 397 kts | 71° |
| 2026-04-30 04:39 | 17.97728 | 77.36744 | 26708 ft | 393 kts | 84° |
| 2026-04-30 04:39 | 17.97658 | 77.39596 | 26450 ft | 388 kts | 97° |
| 2026-04-30 04:40 | 17.97119 | 77.42315 | 26212 ft | 382 kts | 106° |
| 2026-04-30 04:40 | 17.96188 | 77.44927 | 25953 ft | 376 kts | 118° |
| 2026-04-30 04:40 | 17.94712 | 77.47110 | 25700 ft | 365 kts | 131° |
| 2026-04-30 04:40 | 17.93090 | 77.49149 | 25478 ft | 361 kts | 130° |
| 2026-04-30 04:41 | 17.91507 | 77.51201 | 25177 ft | 361 kts | 129° |
| 2026-04-30 04:41 | 17.89940 | 77.53281 | 24649 ft | 370 kts | 129° |
| 2026-04-30 04:41 | 17.88327 | 77.55443 | 24168 ft | 378 kts | 128° |
| 2026-04-30 04:41 | 17.86712 | 77.57614 | 23818 ft | 381 kts | 128° |
| 2026-04-30 04:42 | 17.85068 | 77.59822 | 23416 ft | 384 kts | 128° |
| 2026-04-30 04:42 | 17.83417 | 77.62040 | 23050 ft | 385 kts | 128° |
| 2026-04-30 04:42 | 17.81761 | 77.64262 | 22789 ft | 383 kts | 128° |
| 2026-04-30 04:42 | 17.80127 | 77.66453 | 22553 ft | 380 kts | 128° |
| 2026-04-30 04:43 | 17.78498 | 77.68633 | 22304 ft | 378 kts | 128° |
| 2026-04-30 04:43 | 17.76901 | 77.70770 | 22054 ft | 376 kts | 128° |
| 2026-04-30 04:43 | 17.75285 | 77.72932 | 21778 ft | 375 kts | 128° |
| 2026-04-30 04:43 | 17.73674 | 77.75085 | 21517 ft | 374 kts | 128° |
| 2026-04-30 04:44 | 17.72069 | 77.77230 | 21261 ft | 372 kts | 128° |
| 2026-04-30 04:44 | 17.70491 | 77.79340 | 21047 ft | 370 kts | 128° |
| 2026-04-30 04:44 | 17.68905 | 77.81458 | 20808 ft | 368 kts | 128° |
| 2026-04-30 04:44 | 17.67320 | 77.83574 | 20564 ft | 367 kts | 128° |
| 2026-04-30 04:45 | 17.65759 | 77.85658 | 20332 ft | 366 kts | 128° |
| 2026-04-30 04:45 | 17.64183 | 77.87762 | 20093 ft | 364 kts | 128° |
| 2026-04-30 04:45 | 17.62630 | 77.89836 | 19825 ft | 362 kts | 128° |
| 2026-04-30 04:45 | 17.61071 | 77.91916 | 19470 ft | 361 kts | 127° |
| 2026-04-30 04:46 | 17.59516 | 77.93989 | 19090 ft | 360 kts | 127° |
| 2026-04-30 04:46 | 17.57990 | 77.96036 | 18697 ft | 360 kts | 127° |
| 2026-04-30 04:46 | 17.56452 | 77.98125 | 18291 ft | 360 kts | 126° |
| 2026-04-30 04:46 | 17.54939 | 78.00192 | 17856 ft | 359 kts | 126° |
| 2026-04-30 04:47 | 17.53413 | 78.02275 | 17441 ft | 358 kts | 126° |
| 2026-04-30 04:47 | 17.51898 | 78.04341 | 17032 ft | 356 kts | 127° |
| 2026-04-30 04:47 | 17.50399 | 78.06383 | 16641 ft | 355 kts | 127° |
| 2026-04-30 04:47 | 17.48894 | 78.08432 | 16235 ft | 353 kts | 127° |
| 2026-04-30 04:48 | 17.47395 | 78.10471 | 15865 ft | 351 kts | 127° |
| 2026-04-30 04:48 | 17.45918 | 78.12479 | 15480 ft | 350 kts | 127° |
| 2026-04-30 04:48 | 17.44428 | 78.14505 | 15097 ft | 349 kts | 127° |
| 2026-04-30 04:48 | 17.42949 | 78.16514 | 14724 ft | 348 kts | 127° |
| 2026-04-30 04:49 | 17.41483 | 78.18505 | 14330 ft | 347 kts | 127° |
| 2026-04-30 04:49 | 17.40007 | 78.20510 | 13936 ft | 346 kts | 127° |
| 2026-04-30 04:49 | 17.38555 | 78.22482 | 13529 ft | 346 kts | 127° |
| 2026-04-30 04:49 | 17.37088 | 78.24474 | 13131 ft | 344 kts | 127° |
| 2026-04-30 04:50 | 17.35642 | 78.26436 | 12731 ft | 333 kts | 127° |
| 2026-04-30 04:50 | 17.34244 | 78.28332 | 12355 ft | 322 kts | 127° |
| 2026-04-30 04:50 | 17.32905 | 78.30145 | 12006 ft | 313 kts | 127° |
| 2026-04-30 04:50 | 17.31661 | 78.31986 | 11666 ft | 305 kts | 114° |
| 2026-04-30 04:51 | 17.31093 | 78.34092 | 11407 ft | 297 kts | 92° |
| 2026-04-30 04:51 | 17.31113 | 78.36214 | 11110 ft | 293 kts | 87° |
| 2026-04-30 04:51 | 17.31181 | 78.38343 | 10789 ft | 292 kts | 87° |
| 2026-04-30 04:51 | 17.31237 | 78.40453 | 10501 ft | 289 kts | 87° |
| 2026-04-30 04:52 | 17.31287 | 78.42557 | 10224 ft | 285 kts | 88° |
| 2026-04-30 04:52 | 17.31330 | 78.44595 | 10065 ft | 276 kts | 88° |
| 2026-04-30 04:52 | 17.31370 | 78.46578 | 9576 ft | 280 kts | 88° |
| 2026-04-30 04:52 | 17.31411 | 78.48628 | 9192 ft | 279 kts | 88° |
| 2026-04-30 04:53 | 17.31450 | 78.50647 | 8980 ft | 272 kts | 88° |
| 2026-04-30 04:53 | 17.31488 | 78.52608 | 8573 ft | 274 kts | 88° |
| 2026-04-30 04:53 | 17.31526 | 78.54606 | 8207 ft | 273 kts | 88° |
| 2026-04-30 04:53 | 17.31564 | 78.56587 | 7885 ft | 271 kts | 88° |
| 2026-04-30 04:54 | 17.31601 | 78.58551 | 7595 ft | 269 kts | 88° |
| 2026-04-30 04:54 | 17.31636 | 78.60499 | 7299 ft | 266 kts | 87° |
| 2026-04-30 04:54 | 17.31672 | 78.62413 | 7001 ft | 263 kts | 88° |
| 2026-04-30 04:54 | 17.31365 | 78.64261 | 6687 ft | 255 kts | 115° |
| 2026-04-30 04:55 | 17.30263 | 78.65642 | 6394 ft | 248 kts | 146° |
| 2026-04-30 04:55 | 17.28689 | 78.66320 | 6118 ft | 245 kts | 173° |
| 2026-04-30 04:55 | 17.27005 | 78.66247 | 5842 ft | 241 kts | 195° |
| 2026-04-30 04:55 | 17.25511 | 78.65577 | 5530 ft | 232 kts | 220° |
| 2026-04-30 04:56 | 17.24342 | 78.64460 | 5293 ft | 222 kts | 226° |
| 2026-04-30 04:56 | 17.23519 | 78.63196 | 5094 ft | 203 kts | 256° |
| 2026-04-30 04:56 | 17.23317 | 78.61826 | 4973 ft | 186 kts | 264° |
| 2026-04-30 04:56 | 17.23175 | 78.60507 | 4765 ft | 178 kts | 267° |
| 2026-04-30 04:57 | 17.23113 | 78.59231 | 4531 ft | 173 kts | 269° |
| 2026-04-30 04:57 | 17.23086 | 78.57968 | 4320 ft | 174 kts | 270° |
| 2026-04-30 04:57 | 17.23067 | 78.56708 | 4097 ft | 176 kts | 270° |
| 2026-04-30 04:57 | 17.23051 | 78.55427 | 3878 ft | 175 kts | 270° |
| 2026-04-30 04:58 | 17.23035 | 78.54161 | 3683 ft | 176 kts | 270° |
| 2026-04-30 04:58 | 17.23016 | 78.52875 | 3463 ft | 176 kts | 270° |
| 2026-04-30 04:58 | 17.22999 | 78.51624 | 3253 ft | 165 kts | 270° |
| 2026-04-30 04:58 | 17.22983 | 78.50444 | 3038 ft | 161 kts | 269° |
| 2026-04-30 04:59 | 17.22967 | 78.49292 | 2839 ft | 160 kts | 270° |
| 2026-04-30 04:59 | 17.22952 | 78.48131 | 2628 ft | 158 kts | 270° |
| 2026-04-30 04:59 | 17.22937 | 78.46990 | 2421 ft | 154 kts | 270° |
| 2026-04-30 04:59 | 17.22918 | 78.45879 | 2199 ft | 147 kts | 271° |
| 2026-04-30 05:00 | 17.22903 | 78.44858 | 2043 ft | 136 kts | 273° |
| 2026-04-30 05:00 | 17.22896 | 78.43986 | 2030 ft | 97 kts | 270° |
| 2026-04-30 05:00 | 17.22888 | 78.43473 | 2015 ft | 44 kts | 269° |
| 2026-04-30 05:00 | 17.22886 | 78.43266 | 2011 ft | 21 kts | 269° |
| 2026-04-30 05:01 | 17.22894 | 78.43105 | 2010 ft | 22 kts | 284° |
| 2026-04-30 05:01 | 17.22928 | 78.43008 | 2005 ft | 14 kts | 296° |
| 2026-04-30 05:01 | 17.22975 | 78.42919 | 2005 ft | 14 kts | 299° |
| 2026-04-30 05:01 | 17.23025 | 78.42831 | 2006 ft | 14 kts | 300° |
| 2026-04-30 05:02 | 17.23081 | 78.42749 | 2004 ft | 14 kts | 324° |
| 2026-04-30 05:02 | 17.23174 | 78.42731 | 2005 ft | 10 kts | 359° |
| 2026-04-30 05:02 | 17.23240 | 78.42730 | 2006 ft | 9 kts | 359° |
| 2026-04-30 05:02 | 17.23302 | 78.42720 | 2005 ft | 8 kts | 346° |
| 2026-04-30 05:03 | 17.23356 | 78.42714 | 2005 ft | 8 kts | 358° |
| 2026-04-30 05:03 | 17.23405 | 78.42712 | 2004 ft | 6 kts | 358° |
| 2026-04-30 05:03 | 17.23415 | 78.42712 | 2004 ft | 0 kts | 358° |